Missouri River (Missouri), Waverly (06895500)

StateMissouriLatestUnknown (47300 cfs)
RiverMissouri RiverRatingObservedEstimated
Updated2020-10-29 11:00 (28 minutes ago)Flood - The river is flooding. Obstacles can be treacherous or deadly. The river should be avoided at this stage for casual trips and definitely for the inexperienced. Trips should be attempted only with protective gear and equipment.Flood(none)(none)
Discharge47300 cfs (median: 47900 cfs)High - The river is high and potentially dangerous, especially for the young and / or inexperienced. Normal stream obstacles are sometimes difficult to navigate. Extended distances can be attempted, but canoe travel may not be advisable.High(none)(none)
Height11.72 feetGood - Conditions are ideal for a canoe or kayak. Boats typically will drag on fewer than one-quarter of riffles, if at all, and portages are unnecessary or rare. Normal float lengths can be attempted without a problem.Good(none)(none)
TrendRising (rising over 24 hours)Low - River is low but can still be floated. Some riffles are okay but most come with significant dragging and might need a portage. Float lengths should be reduced to accommodate low flow, dragging, and portages.Low(none)(none)
USGSExternal icon USGS Site (External icon Google Maps)Poor - River is too low to float comfortably. Most or all riffles will drag or must be portaged and some obstacles (such as slick shelf rock) cause undue problems. Avoid the river at this stage for casual paddling trips.Poor(none)(none)

Trending Data

Plot Image

Trips for Missouri River (Missouri), Waverly (06895500)

DateStartEndDistanceConditionDischargeHeightFishingDetails

A total of 0 rows are displayed.

Condition Descriptions

Fishing Conditions

Fish Species

Notes

Classic Trip List

The classic River Trips application is still available for use. It is updated with the new system using a data retrofit. It is no longer maintained. The original River Trips application is no longer updated (as of 1 Dec 2016) but can be checked for errors or for the condition of the data before it was converted to the new system.

Gauge Data Table

ObservationHeightDischargeMaximum
Discharge
Minimum
Discharge
Mean
Discharge
P05P10P20P25P50
(Median)
P75P80P90P95
2020-10-29 11:00 11.72 47300 130000 (1987) 24300 (2006) 53500 28100 34500 37200 40700 47900 63100 67200 77500 97500
2020-10-29 10:00 11.71 47200 130000 (1987) 24300 (2006) 53500 28100 34500 37200 40700 47900 63100 67200 77500 97500
2020-10-29 09:00 11.74 47400 130000 (1987) 24300 (2006) 53500 28100 34500 37200 40700 47900 63100 67200 77500 97500
2020-10-29 08:00 11.72 47300 130000 (1987) 24300 (2006) 53500 28100 34500 37200 40700 47900 63100 67200 77500 97500
2020-10-29 07:00 11.69 47100 130000 (1987) 24300 (2006) 53500 28100 34500 37200 40700 47900 63100 67200 77500 97500
2020-10-29 06:00 11.71 47200 130000 (1987) 24300 (2006) 53500 28100 34500 37200 40700 47900 63100 67200 77500 97500
2020-10-29 05:00 11.68 47000 130000 (1987) 24300 (2006) 53500 28100 34500 37200 40700 47900 63100 67200 77500 97500
2020-10-29 04:00 11.67 47000 130000 (1987) 24300 (2006) 53500 28100 34500 37200 40700 47900 63100 67200 77500 97500
2020-10-29 03:00 11.67 47000 130000 (1987) 24300 (2006) 53500 28100 34500 37200 40700 47900 63100 67200 77500 97500
2020-10-29 02:00 11.65 46900 130000 (1987) 24300 (2006) 53500 28100 34500 37200 40700 47900 63100 67200 77500 97500
2020-10-29 01:00 11.64 46800 130000 (1987) 24300 (2006) 53500 28100 34500 37200 40700 47900 63100 67200 77500 97500
2020-10-29 00:00 11.63 46800 130000 (1987) 24300 (2006) 53500 28100 34500 37200 40700 47900 63100 67200 77500 97500
2020-10-28 23:00 11.62 46700 139000 (1987) 24800 (2006) 53900 27200 35400 37500 40900 48900 64300 68400 76900 98400
2020-10-28 22:00 11.62 46700 139000 (1987) 24800 (2006) 53900 27200 35400 37500 40900 48900 64300 68400 76900 98400
2020-10-28 21:00 11.62 46700 139000 (1987) 24800 (2006) 53900 27200 35400 37500 40900 48900 64300 68400 76900 98400
2020-10-28 20:00 11.61 46700 139000 (1987) 24800 (2006) 53900 27200 35400 37500 40900 48900 64300 68400 76900 98400
2020-10-28 19:00 11.60 46600 139000 (1987) 24800 (2006) 53900 27200 35400 37500 40900 48900 64300 68400 76900 98400
2020-10-28 18:00 11.59 46600 139000 (1987) 24800 (2006) 53900 27200 35400 37500 40900 48900 64300 68400 76900 98400
2020-10-28 17:00 11.56 46400 139000 (1987) 24800 (2006) 53900 27200 35400 37500 40900 48900 64300 68400 76900 98400
2020-10-28 16:00 11.62 46700 139000 (1987) 24800 (2006) 53900 27200 35400 37500 40900 48900 64300 68400 76900 98400
2020-10-28 15:00 11.63 46800 139000 (1987) 24800 (2006) 53900 27200 35400 37500 40900 48900 64300 68400 76900 98400
2020-10-28 14:00 11.59 46600 139000 (1987) 24800 (2006) 53900 27200 35400 37500 40900 48900 64300 68400 76900 98400
2020-10-28 13:00 11.62 46700 139000 (1987) 24800 (2006) 53900 27200 35400 37500 40900 48900 64300 68400 76900 98400
2020-10-28 12:00 11.61 46700 139000 (1987) 24800 (2006) 53900 27200 35400 37500 40900 48900 64300 68400 76900 98400
2020-10-28 11:00 11.62 46700 139000 (1987) 24800 (2006) 53900 27200 35400 37500 40900 48900 64300 68400 76900 98400
2020-10-28 10:00 11.62 46700 139000 (1987) 24800 (2006) 53900 27200 35400 37500 40900 48900 64300 68400 76900 98400
2020-10-28 09:00 11.62 46700 139000 (1987) 24800 (2006) 53900 27200 35400 37500 40900 48900 64300 68400 76900 98400
2020-10-28 08:00 11.63 46800 139000 (1987) 24800 (2006) 53900 27200 35400 37500 40900 48900 64300 68400 76900 98400
2020-10-28 07:00 11.64 46800 139000 (1987) 24800 (2006) 53900 27200 35400 37500 40900 48900 64300 68400 76900 98400
2020-10-28 06:00 11.64 46800 139000 (1987) 24800 (2006) 53900 27200 35400 37500 40900 48900 64300 68400 76900 98400
2020-10-28 05:00 11.64 46800 139000 (1987) 24800 (2006) 53900 27200 35400 37500 40900 48900 64300 68400 76900 98400
2020-10-28 04:00 11.65 46900 139000 (1987) 24800 (2006) 53900 27200 35400 37500 40900 48900 64300 68400 76900 98400
2020-10-28 03:00 11.65 46900 139000 (1987) 24800 (2006) 53900 27200 35400 37500 40900 48900 64300 68400 76900 98400
2020-10-28 02:00 11.65 46900 139000 (1987) 24800 (2006) 53900 27200 35400 37500 40900 48900 64300 68400 76900 98400
2020-10-28 01:00 11.65 46900 139000 (1987) 24800 (2006) 53900 27200 35400 37500 40900 48900 64300 68400 76900 98400
2020-10-28 00:00 11.63 46800 139000 (1987) 24800 (2006) 53900 27200 35400 37500 40900 48900 64300 68400 76900 98400
2020-10-27 23:00 11.63 46800 143000 (1987) 25100 (2007) 54400 25900 35400 37900 39700 49000 66600 69200 81900 100000
2020-10-27 22:00 11.63 46800 143000 (1987) 25100 (2007) 54400 25900 35400 37900 39700 49000 66600 69200 81900 100000
2020-10-27 21:00 11.63 46800 143000 (1987) 25100 (2007) 54400 25900 35400 37900 39700 49000 66600 69200 81900 100000
2020-10-27 20:00 11.63 46800 143000 (1987) 25100 (2007) 54400 25900 35400 37900 39700 49000 66600 69200 81900 100000
2020-10-27 19:00 11.64 46800 143000 (1987) 25100 (2007) 54400 25900 35400 37900 39700 49000 66600 69200 81900 100000
2020-10-27 18:00 11.67 47000 143000 (1987) 25100 (2007) 54400 25900 35400 37900 39700 49000 66600 69200 81900 100000
2020-10-27 17:00 11.67 47000 143000 (1987) 25100 (2007) 54400 25900 35400 37900 39700 49000 66600 69200 81900 100000
2020-10-27 16:00 11.67 47000 143000 (1987) 25100 (2007) 54400 25900 35400 37900 39700 49000 66600 69200 81900 100000
2020-10-27 15:00 11.67 47000 143000 (1987) 25100 (2007) 54400 25900 35400 37900 39700 49000 66600 69200 81900 100000
2020-10-27 14:00 11.67 47000 143000 (1987) 25100 (2007) 54400 25900 35400 37900 39700 49000 66600 69200 81900 100000
2020-10-27 13:00 11.65 46900 143000 (1987) 25100 (2007) 54400 25900 35400 37900 39700 49000 66600 69200 81900 100000
2020-10-27 12:00 11.67 47000 143000 (1987) 25100 (2007) 54400 25900 35400 37900 39700 49000 66600 69200 81900 100000
2020-10-27 11:00 11.67 47000 143000 (1987) 25100 (2007) 54400 25900 35400 37900 39700 49000 66600 69200 81900 100000
2020-10-27 10:00 11.65 46900 143000 (1987) 25100 (2007) 54400 25900 35400 37900 39700 49000 66600 69200 81900 100000
2020-10-27 09:00 11.67 47000 143000 (1987) 25100 (2007) 54400 25900 35400 37900 39700 49000 66600 69200 81900 100000
2020-10-27 08:00 11.70 47200 143000 (1987) 25100 (2007) 54400 25900 35400 37900 39700 49000 66600 69200 81900 100000
2020-10-27 07:00 11.69 47100 143000 (1987) 25100 (2007) 54400 25900 35400 37900 39700 49000 66600 69200 81900 100000
2020-10-27 06:00 11.69 47100 143000 (1987) 25100 (2007) 54400 25900 35400 37900 39700 49000 66600 69200 81900 100000
2020-10-27 05:00 11.70 47200 143000 (1987) 25100 (2007) 54400 25900 35400 37900 39700 49000 66600 69200 81900 100000
2020-10-27 04:00 11.69 47100 143000 (1987) 25100 (2007) 54400 25900 35400 37900 39700 49000 66600 69200 81900 100000
2020-10-27 03:00 11.70 47200 143000 (1987) 25100 (2007) 54400 25900 35400 37900 39700 49000 66600 69200 81900 100000
2020-10-27 02:00 11.70 47200 143000 (1987) 25100 (2007) 54400 25900 35400 37900 39700 49000 66600 69200 81900 100000
2020-10-27 01:00 11.69 47100 143000 (1987) 25100 (2007) 54400 25900 35400 37900 39700 49000 66600 69200 81900 100000
2020-10-27 00:00 11.72 47300 143000 (1987) 25100 (2007) 54400 25900 35400 37900 39700 49000 66600 69200 81900 100000
2020-10-26 23:00 11.72 47300 143000 (1987) 23800 (2007) 55200 26300 34900 38700 39600 49600 67000 71000 85500 99100
2020-10-26 22:00 11.74 47400 143000 (1987) 23800 (2007) 55200 26300 34900 38700 39600 49600 67000 71000 85500 99100
2020-10-26 21:00 11.73 47300 143000 (1987) 23800 (2007) 55200 26300 34900 38700 39600 49600 67000 71000 85500 99100
2020-10-26 20:00 11.75 47400 143000 (1987) 23800 (2007) 55200 26300 34900 38700 39600 49600 67000 71000 85500 99100
2020-10-26 19:00 11.74 47400 143000 (1987) 23800 (2007) 55200 26300 34900 38700 39600 49600 67000 71000 85500 99100
2020-10-26 18:00 11.74 47400 143000 (1987) 23800 (2007) 55200 26300 34900 38700 39600 49600 67000 71000 85500 99100
2020-10-26 17:00 11.71 47200 143000 (1987) 23800 (2007) 55200 26300 34900 38700 39600 49600 67000 71000 85500 99100
2020-10-26 16:00 11.72 47300 143000 (1987) 23800 (2007) 55200 26300 34900 38700 39600 49600 67000 71000 85500 99100
2020-10-26 15:00 11.75 47400 143000 (1987) 23800 (2007) 55200 26300 34900 38700 39600 49600 67000 71000 85500 99100
2020-10-26 14:00 11.73 47300 143000 (1987) 23800 (2007) 55200 26300 34900 38700 39600 49600 67000 71000 85500 99100
2020-10-26 13:00 11.73 47300 143000 (1987) 23800 (2007) 55200 26300 34900 38700 39600 49600 67000 71000 85500 99100
2020-10-26 12:00 11.72 47300 143000 (1987) 23800 (2007) 55200 26300 34900 38700 39600 49600 67000 71000 85500 99100
2020-10-26 11:00 11.71 47200 143000 (1987) 23800 (2007) 55200 26300 34900 38700 39600 49600 67000 71000 85500 99100
2020-10-26 10:00 11.67 47000 143000 (1987) 23800 (2007) 55200 26300 34900 38700 39600 49600 67000 71000 85500 99100
2020-10-26 09:00 11.67 47000 143000 (1987) 23800 (2007) 55200 26300 34900 38700 39600 49600 67000 71000 85500 99100
2020-10-26 08:00 11.74 47400 143000 (1987) 23800 (2007) 55200 26300 34900 38700 39600 49600 67000 71000 85500 99100
2020-10-26 07:00 11.71 47200 143000 (1987) 23800 (2007) 55200 26300 34900 38700 39600 49600 67000 71000 85500 99100
2020-10-26 06:00 11.68 47000 143000 (1987) 23800 (2007) 55200 26300 34900 38700 39600 49600 67000 71000 85500 99100
2020-10-26 05:00 11.73 47300 143000 (1987) 23800 (2007) 55200 26300 34900 38700 39600 49600 67000 71000 85500 99100
2020-10-26 04:00 11.74 47400 143000 (1987) 23800 (2007) 55200 26300 34900 38700 39600 49600 67000 71000 85500 99100
2020-10-26 03:00 11.71 47200 143000 (1987) 23800 (2007) 55200 26300 34900 38700 39600 49600 67000 71000 85500 99100
2020-10-26 02:00 11.72 47300 143000 (1987) 23800 (2007) 55200 26300 34900 38700 39600 49600 67000 71000 85500 99100
2020-10-26 01:00 11.72 47300 143000 (1987) 23800 (2007) 55200 26300 34900 38700 39600 49600 67000 71000 85500 99100
2020-10-26 00:00 11.74 47400 143000 (1987) 23800 (2007) 55200 26300 34900 38700 39600 49600 67000 71000 85500 99100
2020-10-25 23:00 11.73 47300 129000 (1987) 23600 (2007) 55500 27200 34900 39500 40300 51700 66400 70900 83300 102000
2020-10-25 22:00 11.72 47300 129000 (1987) 23600 (2007) 55500 27200 34900 39500 40300 51700 66400 70900 83300 102000
2020-10-25 21:00 11.72 47300 129000 (1987) 23600 (2007) 55500 27200 34900 39500 40300 51700 66400 70900 83300 102000
2020-10-25 20:00 11.71 47200 129000 (1987) 23600 (2007) 55500 27200 34900 39500 40300 51700 66400 70900 83300 102000
2020-10-25 19:00 11.71 47200 129000 (1987) 23600 (2007) 55500 27200 34900 39500 40300 51700 66400 70900 83300 102000
2020-10-25 18:00 11.71 47200 129000 (1987) 23600 (2007) 55500 27200 34900 39500 40300 51700 66400 70900 83300 102000
2020-10-25 17:00 11.70 47200 129000 (1987) 23600 (2007) 55500 27200 34900 39500 40300 51700 66400 70900 83300 102000
2020-10-25 16:00 11.72 47300 129000 (1987) 23600 (2007) 55500 27200 34900 39500 40300 51700 66400 70900 83300 102000
2020-10-25 15:00 11.74 47400 129000 (1987) 23600 (2007) 55500 27200 34900 39500 40300 51700 66400 70900 83300 102000
2020-10-25 14:00 11.75 47400 129000 (1987) 23600 (2007) 55500 27200 34900 39500 40300 51700 66400 70900 83300 102000
2020-10-25 13:00 11.77 47500 129000 (1987) 23600 (2007) 55500 27200 34900 39500 40300 51700 66400 70900 83300 102000
2020-10-25 12:00 11.77 47500 129000 (1987) 23600 (2007) 55500 27200 34900 39500 40300 51700 66400 70900 83300 102000
2020-10-25 11:00 11.81 47700 129000 (1987) 23600 (2007) 55500 27200 34900 39500 40300 51700 66400 70900 83300 102000
2020-10-25 10:00 11.77 47500 129000 (1987) 23600 (2007) 55500 27200 34900 39500 40300 51700 66400 70900 83300 102000
2020-10-25 09:00 11.76 47500 129000 (1987) 23600 (2007) 55500 27200 34900 39500 40300 51700 66400 70900 83300 102000
2020-10-25 08:00 11.78 47600 129000 (1987) 23600 (2007) 55500 27200 34900 39500 40300 51700 66400 70900 83300 102000
2020-10-25 07:00 11.80 47700 129000 (1987) 23600 (2007) 55500 27200 34900 39500 40300 51700 66400 70900 83300 102000
2020-10-25 06:00 11.75 47400 129000 (1987) 23600 (2007) 55500 27200 34900 39500 40300 51700 66400 70900 83300 102000
2020-10-25 05:00 11.81 47700 129000 (1987) 23600 (2007) 55500 27200 34900 39500 40300 51700 66400 70900 83300 102000
2020-10-25 04:00 11.79 47600 129000 (1987) 23600 (2007) 55500 27200 34900 39500 40300 51700 66400 70900 83300 102000
2020-10-25 03:00 11.79 47600 129000 (1987) 23600 (2007) 55500 27200 34900 39500 40300 51700 66400 70900 83300 102000
2020-10-25 02:00 11.78 47600 129000 (1987) 23600 (2007) 55500 27200 34900 39500 40300 51700 66400 70900 83300 102000
2020-10-25 01:00 11.78 47600 129000 (1987) 23600 (2007) 55500 27200 34900 39500 40300 51700 66400 70900 83300 102000
2020-10-25 00:00 11.74 47400 129000 (1987) 23600 (2007) 55500 27200 34900 39500 40300 51700 66400 70900 83300 102000
2020-10-24 23:00 11.70 47200 119000 (1987) 24100 (2007) 55500 28600 34800 38900 40700 51000 66400 70400 82500 105000
2020-10-24 22:00 11.71 47200 119000 (1987) 24100 (2007) 55500 28600 34800 38900 40700 51000 66400 70400 82500 105000
2020-10-24 21:00 11.77 47500 119000 (1987) 24100 (2007) 55500 28600 34800 38900 40700 51000 66400 70400 82500 105000
2020-10-24 20:00 11.86 48000 119000 (1987) 24100 (2007) 55500 28600 34800 38900 40700 51000 66400 70400 82500 105000
2020-10-24 19:00 11.81 47700 119000 (1987) 24100 (2007) 55500 28600 34800 38900 40700 51000 66400 70400 82500 105000
2020-10-24 18:00 11.77 47500 119000 (1987) 24100 (2007) 55500 28600 34800 38900 40700 51000 66400 70400 82500 105000
2020-10-24 17:00 11.72 47300 119000 (1987) 24100 (2007) 55500 28600 34800 38900 40700 51000 66400 70400 82500 105000
2020-10-24 16:00 11.70 47200 119000 (1987) 24100 (2007) 55500 28600 34800 38900 40700 51000 66400 70400 82500 105000
2020-10-24 15:00 11.74 47400 119000 (1987) 24100 (2007) 55500 28600 34800 38900 40700 51000 66400 70400 82500 105000
2020-10-24 14:00 11.72 47300 119000 (1987) 24100 (2007) 55500 28600 34800 38900 40700 51000 66400 70400 82500 105000
2020-10-24 13:00 11.75 47400 119000 (1987) 24100 (2007) 55500 28600 34800 38900 40700 51000 66400 70400 82500 105000
2020-10-24 12:00 11.75 47400 119000 (1987) 24100 (2007) 55500 28600 34800 38900 40700 51000 66400 70400 82500 105000
2020-10-24 11:00 11.73 47300 119000 (1987) 24100 (2007) 55500 28600 34800 38900 40700 51000 66400 70400 82500 105000
2020-10-24 10:00 11.77 47500 119000 (1987) 24100 (2007) 55500 28600 34800 38900 40700 51000 66400 70400 82500 105000
2020-10-24 09:00 11.84 47900 119000 (1987) 24100 (2007) 55500 28600 34800 38900 40700 51000 66400 70400 82500 105000
2020-10-24 08:00 11.84 47900 119000 (1987) 24100 (2007) 55500 28600 34800 38900 40700 51000 66400 70400 82500 105000
2020-10-24 07:00 11.87 48000 119000 (1987) 24100 (2007) 55500 28600 34800 38900 40700 51000 66400 70400 82500 105000
2020-10-24 06:00 11.86 48000 119000 (1987) 24100 (2007) 55500 28600 34800 38900 40700 51000 66400 70400 82500 105000
2020-10-24 05:00 11.86 48000 119000 (1987) 24100 (2007) 55500 28600 34800 38900 40700 51000 66400 70400 82500 105000
2020-10-24 04:00 11.85 47900 119000 (1987) 24100 (2007) 55500 28600 34800 38900 40700 51000 66400 70400 82500 105000
2020-10-24 03:00 11.84 47900 119000 (1987) 24100 (2007) 55500 28600 34800 38900 40700 51000 66400 70400 82500 105000
2020-10-24 02:00 11.83 47800 119000 (1987) 24100 (2007) 55500 28600 34800 38900 40700 51000 66400 70400 82500 105000
2020-10-24 01:00 11.76 47500 119000 (1987) 24100 (2007) 55500 28600 34800 38900 40700 51000 66400 70400 82500 105000
2020-10-24 00:00 11.81 47700 119000 (1987) 24100 (2007) 55500 28600 34800 38900 40700 51000 66400 70400 82500 105000
2020-10-23 23:00 11.80 47700 117000 (2019) 25200 (2007) 55500 30600 34800 38900 40600 50200 67300 72500 83900 107000
2020-10-23 22:00 11.79 47600 117000 (2019) 25200 (2007) 55500 30600 34800 38900 40600 50200 67300 72500 83900 107000
2020-10-23 21:00 11.78 47600 117000 (2019) 25200 (2007) 55500 30600 34800 38900 40600 50200 67300 72500 83900 107000
2020-10-23 20:00 11.75 47400 117000 (2019) 25200 (2007) 55500 30600 34800 38900 40600 50200 67300 72500 83900 107000
2020-10-23 19:00 11.73 47300 117000 (2019) 25200 (2007) 55500 30600 34800 38900 40600 50200 67300 72500 83900 107000
2020-10-23 18:00 11.77 47500 117000 (2019) 25200 (2007) 55500 30600 34800 38900 40600 50200 67300 72500 83900 107000
2020-10-23 17:00 11.76 47500 117000 (2019) 25200 (2007) 55500 30600 34800 38900 40600 50200 67300 72500 83900 107000
2020-10-23 16:00 11.74 47400 117000 (2019) 25200 (2007) 55500 30600 34800 38900 40600 50200 67300 72500 83900 107000
2020-10-23 15:00 11.73 47300 117000 (2019) 25200 (2007) 55500 30600 34800 38900 40600 50200 67300 72500 83900 107000
2020-10-23 14:00 11.74 47400 117000 (2019) 25200 (2007) 55500 30600 34800 38900 40600 50200 67300 72500 83900 107000
2020-10-23 13:00 11.74 47400 117000 (2019) 25200 (2007) 55500 30600 34800 38900 40600 50200 67300 72500 83900 107000
2020-10-23 12:00 11.72 47300 117000 (2019) 25200 (2007) 55500 30600 34800 38900 40600 50200 67300 72500 83900 107000
2020-10-23 11:00 11.74 47400 117000 (2019) 25200 (2007) 55500 30600 34800 38900 40600 50200 67300 72500 83900 107000
2020-10-23 10:00 11.71 47200 117000 (2019) 25200 (2007) 55500 30600 34800 38900 40600 50200 67300 72500 83900 107000
2020-10-23 09:00 11.71 47200 117000 (2019) 25200 (2007) 55500 30600 34800 38900 40600 50200 67300 72500 83900 107000
2020-10-23 08:00 11.68 47000 117000 (2019) 25200 (2007) 55500 30600 34800 38900 40600 50200 67300 72500 83900 107000
2020-10-23 07:00 11.65 46900 117000 (2019) 25200 (2007) 55500 30600 34800 38900 40600 50200 67300 72500 83900 107000
2020-10-23 06:00 11.58 46500 117000 (2019) 25200 (2007) 55500 30600 34800 38900 40600 50200 67300 72500 83900 107000
2020-10-23 05:00 11.68 47000 117000 (2019) 25200 (2007) 55500 30600 34800 38900 40600 50200 67300 72500 83900 107000
2020-10-23 04:00 11.69 47100 117000 (2019) 25200 (2007) 55500 30600 34800 38900 40600 50200 67300 72500 83900 107000
2020-10-23 03:00 11.61 46700 117000 (2019) 25200 (2007) 55500 30600 34800 38900 40600 50200 67300 72500 83900 107000
2020-10-23 02:00 11.69 47100 117000 (2019) 25200 (2007) 55500 30600 34800 38900 40600 50200 67300 72500 83900 107000
2020-10-23 01:00 11.69 47100 117000 (2019) 25200 (2007) 55500 30600 34800 38900 40600 50200 67300 72500 83900 107000
2020-10-23 00:00 11.68 47000 117000 (2019) 25200 (2007) 55500 30600 34800 38900 40600 50200 67300 72500 83900 107000
2020-10-22 23:00 11.61 46700 122000 (1974) 24800 (2007) 55200 30600 35000 39000 40100 49800 68500 71700 82900 111000
2020-10-22 22:00 11.66 46900 122000 (1974) 24800 (2007) 55200 30600 35000 39000 40100 49800 68500 71700 82900 111000
2020-10-22 21:00 11.65 46900 122000 (1974) 24800 (2007) 55200 30600 35000 39000 40100 49800 68500 71700 82900 111000
2020-10-22 20:00 11.65 46900 122000 (1974) 24800 (2007) 55200 30600 35000 39000 40100 49800 68500 71700 82900 111000
2020-10-22 19:00 11.66 46900 122000 (1974) 24800 (2007) 55200 30600 35000 39000 40100 49800 68500 71700 82900 111000
2020-10-22 18:00 11.64 46800 122000 (1974) 24800 (2007) 55200 30600 35000 39000 40100 49800 68500 71700 82900 111000
2020-10-22 17:00 11.59 46600 122000 (1974) 24800 (2007) 55200 30600 35000 39000 40100 49800 68500 71700 82900 111000
2020-10-22 16:00 11.63 46800 122000 (1974) 24800 (2007) 55200 30600 35000 39000 40100 49800 68500 71700 82900 111000
2020-10-22 15:00 11.59 46600 122000 (1974) 24800 (2007) 55200 30600 35000 39000 40100 49800 68500 71700 82900 111000
2020-10-22 14:00 11.59 46600 122000 (1974) 24800 (2007) 55200 30600 35000 39000 40100 49800 68500 71700 82900 111000
2020-10-22 13:00 11.57 46500 122000 (1974) 24800 (2007) 55200 30600 35000 39000 40100 49800 68500 71700 82900 111000
2020-10-22 12:00 11.60 46600 122000 (1974) 24800 (2007) 55200 30600 35000 39000 40100 49800 68500 71700 82900 111000
2020-10-22 11:00 11.55 46400 122000 (1974) 24800 (2007) 55200 30600 35000 39000 40100 49800 68500 71700 82900 111000
2020-10-22 10:00 11.55 46400 122000 (1974) 24800 (2007) 55200 30600 35000 39000 40100 49800 68500 71700 82900 111000
2020-10-22 09:00 11.59 46600 122000 (1974) 24800 (2007) 55200 30600 35000 39000 40100 49800 68500 71700 82900 111000
2020-10-22 08:00 11.60 46600 122000 (1974) 24800 (2007) 55200 30600 35000 39000 40100 49800 68500 71700 82900 111000
2020-10-22 07:00 11.62 46700 122000 (1974) 24800 (2007) 55200 30600 35000 39000 40100 49800 68500 71700 82900 111000
2020-10-22 06:00 11.63 46800 122000 (1974) 24800 (2007) 55200 30600 35000 39000 40100 49800 68500 71700 82900 111000
2020-10-22 05:00 11.63 46800 122000 (1974) 24800 (2007) 55200 30600 35000 39000 40100 49800 68500 71700 82900 111000
2020-10-22 04:00 11.62 46700 122000 (1974) 24800 (2007) 55200 30600 35000 39000 40100 49800 68500 71700 82900 111000
2020-10-22 03:00 11.63 46800 122000 (1974) 24800 (2007) 55200 30600 35000 39000 40100 49800 68500 71700 82900 111000
2020-10-22 02:00 11.62 46700 122000 (1974) 24800 (2007) 55200 30600 35000 39000 40100 49800 68500 71700 82900 111000
2020-10-22 01:00 11.61 46700 122000 (1974) 24800 (2007) 55200 30600 35000 39000 40100 49800 68500 71700 82900 111000
2020-10-22 00:00 11.58 46500 122000 (1974) 24800 (2007) 55200 30600 35000 39000 40100 49800 68500 71700 82900 111000
2020-10-21 23:00 11.53 46300 140000 (1974) 24700 (2007) 55900 28900 35500 39100 40200 49100 67400 73100 84000 113000
2020-10-21 22:00 11.52 46200 140000 (1974) 24700 (2007) 55900 28900 35500 39100 40200 49100 67400 73100 84000 113000
2020-10-21 21:00 11.47 46000 140000 (1974) 24700 (2007) 55900 28900 35500 39100 40200 49100 67400 73100 84000 113000
2020-10-21 20:00 11.57 46500 140000 (1974) 24700 (2007) 55900 28900 35500 39100 40200 49100 67400 73100 84000 113000
2020-10-21 19:00 11.53 46300 140000 (1974) 24700 (2007) 55900 28900 35500 39100 40200 49100 67400 73100 84000 113000
2020-10-21 18:00 11.49 46100 140000 (1974) 24700 (2007) 55900 28900 35500 39100 40200 49100 67400 73100 84000 113000
2020-10-21 17:00 11.54 46300 140000 (1974) 24700 (2007) 55900 28900 35500 39100 40200 49100 67400 73100 84000 113000
2020-10-21 16:00 11.51 46200 140000 (1974) 24700 (2007) 55900 28900 35500 39100 40200 49100 67400 73100 84000 113000
2020-10-21 15:00 11.52 46200 140000 (1974) 24700 (2007) 55900 28900 35500 39100 40200 49100 67400 73100 84000 113000
2020-10-21 14:00 11.56 46400 140000 (1974) 24700 (2007) 55900 28900 35500 39100 40200 49100 67400 73100 84000 113000
2020-10-21 13:00 11.47 46000 140000 (1974) 24700 (2007) 55900 28900 35500 39100 40200 49100 67400 73100 84000 113000
2020-10-21 12:00 11.44 45800 140000 (1974) 24700 (2007) 55900 28900 35500 39100 40200 49100 67400 73100 84000 113000
2020-10-21 11:00 11.44 45800 140000 (1974) 24700 (2007) 55900 28900 35500 39100 40200 49100 67400 73100 84000 113000
2020-10-21 10:00 11.42 45700 140000 (1974) 24700 (2007) 55900 28900 35500 39100 40200 49100 67400 73100 84000 113000
2020-10-21 09:00 11.40 45600 140000 (1974) 24700 (2007) 55900 28900 35500 39100 40200 49100 67400 73100 84000 113000
2020-10-21 08:00 11.48 46000 140000 (1974) 24700 (2007) 55900 28900 35500 39100 40200 49100 67400 73100 84000 113000
2020-10-21 07:00 11.48 46000 140000 (1974) 24700 (2007) 55900 28900 35500 39100 40200 49100 67400 73100 84000 113000
2020-10-21 06:00 11.52 46200 140000 (1974) 24700 (2007) 55900 28900 35500 39100 40200 49100 67400 73100 84000 113000
2020-10-21 05:00 11.53 46300 140000 (1974) 24700 (2007) 55900 28900 35500 39100 40200 49100 67400 73100 84000 113000
2020-10-21 04:00 11.53 46300 140000 (1974) 24700 (2007) 55900 28900 35500 39100 40200 49100 67400 73100 84000 113000
2020-10-21 03:00 11.53 46300 140000 (1974) 24700 (2007) 55900 28900 35500 39100 40200 49100 67400 73100 84000 113000
2020-10-21 02:00 11.52 46200 140000 (1974) 24700 (2007) 55900 28900 35500 39100 40200 49100 67400 73100 84000 113000
2020-10-21 01:00 11.52 46200 140000 (1974) 24700 (2007) 55900 28900 35500 39100 40200 49100 67400 73100 84000 113000
2020-10-21 00:00 11.51 46200 140000 (1974) 24700 (2007) 55900 28900 35500 39100 40200 49100 67400 73100 84000 113000
2020-10-20 23:00 11.50 46100 152000 (1974) 25700 (2007) 57100 28000 35400 39300 40700 51100 67700 74200 87200 115000
2020-10-20 22:00 11.50 46100 152000 (1974) 25700 (2007) 57100 28000 35400 39300 40700 51100 67700 74200 87200 115000
2020-10-20 21:00 11.50 46100 152000 (1974) 25700 (2007) 57100 28000 35400 39300 40700 51100 67700 74200 87200 115000
2020-10-20 20:00 11.51 46200 152000 (1974) 25700 (2007) 57100 28000 35400 39300 40700 51100 67700 74200 87200 115000
2020-10-20 19:00 11.50 46100 152000 (1974) 25700 (2007) 57100 28000 35400 39300 40700 51100 67700 74200 87200 115000
2020-10-20 18:00 11.50 46100 152000 (1974) 25700 (2007) 57100 28000 35400 39300 40700 51100 67700 74200 87200 115000
2020-10-20 17:00 11.50 46100 152000 (1974) 25700 (2007) 57100 28000 35400 39300 40700 51100 67700 74200 87200 115000
2020-10-20 16:00 11.49 46100 152000 (1974) 25700 (2007) 57100 28000 35400 39300 40700 51100 67700 74200 87200 115000
2020-10-20 15:00 11.50 46100 152000 (1974) 25700 (2007) 57100 28000 35400 39300 40700 51100 67700 74200 87200 115000
2020-10-20 14:00 11.46 45900 152000 (1974) 25700 (2007) 57100 28000 35400 39300 40700 51100 67700 74200 87200 115000
2020-10-20 13:00 11.45 45900 152000 (1974) 25700 (2007) 57100 28000 35400 39300 40700 51100 67700 74200 87200 115000
2020-10-20 12:00 11.46 45900 152000 (1974) 25700 (2007) 57100 28000 35400 39300 40700 51100 67700 74200 87200 115000
2020-10-20 11:00 11.36 45400 152000 (1974) 25700 (2007) 57100 28000 35400 39300 40700 51100 67700 74200 87200 115000
2020-10-20 10:00 11.33 45300 152000 (1974) 25700 (2007) 57100 28000 35400 39300 40700 51100 67700 74200 87200 115000
2020-10-20 09:00 11.42 45700 152000 (1974) 25700 (2007) 57100 28000 35400 39300 40700 51100 67700 74200 87200 115000
2020-10-20 08:00 11.37 45500 152000 (1974) 25700 (2007) 57100 28000 35400 39300 40700 51100 67700 74200 87200 115000
2020-10-20 07:00 11.38 45500 152000 (1974) 25700 (2007) 57100 28000 35400 39300 40700 51100 67700 74200 87200 115000
2020-10-20 06:00 11.33 45300 152000 (1974) 25700 (2007) 57100 28000 35400 39300 40700 51100 67700 74200 87200 115000
2020-10-20 05:00 11.37 45500 152000 (1974) 25700 (2007) 57100 28000 35400 39300 40700 51100 67700 74200 87200 115000
2020-10-20 04:00 11.32 45200 152000 (1974) 25700 (2007) 57100 28000 35400 39300 40700 51100 67700 74200 87200 115000
2020-10-20 03:00 11.44 45800 152000 (1974) 25700 (2007) 57100 28000 35400 39300 40700 51100 67700 74200 87200 115000
2020-10-20 02:00 11.32 45200 152000 (1974) 25700 (2007) 57100 28000 35400 39300 40700 51100 67700 74200 87200 115000
2020-10-20 01:00 11.42 45700 152000 (1974) 25700 (2007) 57100 28000 35400 39300 40700 51100 67700 74200 87200 115000
2020-10-20 00:00 11.35 45400 152000 (1974) 25700 (2007) 57100 28000 35400 39300 40700 51100 67700 74200 87200 115000
2020-10-19 23:00 11.36 45400 172000 (1974) 27200 (2006) 58600 28400 35200 40200 42200 49900 70000 75900 99700 117000
2020-10-19 22:00 11.37 45500 172000 (1974) 27200 (2006) 58600 28400 35200 40200 42200 49900 70000 75900 99700 117000
2020-10-19 21:00 11.42 45700 172000 (1974) 27200 (2006) 58600 28400 35200 40200 42200 49900 70000 75900 99700 117000
2020-10-19 20:00 11.31 45200 172000 (1974) 27200 (2006) 58600 28400 35200 40200 42200 49900 70000 75900 99700 117000
2020-10-19 19:00 11.35 45400 172000 (1974) 27200 (2006) 58600 28400 35200 40200 42200 49900 70000 75900 99700 117000
2020-10-19 18:00 11.39 45600 172000 (1974) 27200 (2006) 58600 28400 35200 40200 42200 49900 70000 75900 99700 117000
2020-10-19 17:00 11.32 45200 172000 (1974) 27200 (2006) 58600 28400 35200 40200 42200 49900 70000 75900 99700 117000
2020-10-19 16:00 11.30 45100 172000 (1974) 27200 (2006) 58600 28400 35200 40200 42200 49900 70000 75900 99700 117000
2020-10-19 15:00 11.32 45200 172000 (1974) 27200 (2006) 58600 28400 35200 40200 42200 49900 70000 75900 99700 117000
2020-10-19 14:00 11.39 45600 172000 (1974) 27200 (2006) 58600 28400 35200 40200 42200 49900 70000 75900 99700 117000
2020-10-19 13:00 11.37 45500 172000 (1974) 27200 (2006) 58600 28400 35200 40200 42200 49900 70000 75900 99700 117000
2020-10-19 12:00 11.29 45100 172000 (1974) 27200 (2006) 58600 28400 35200 40200 42200 49900 70000 75900 99700 117000
2020-10-19 11:00 11.24 44800 172000 (1974) 27200 (2006) 58600 28400 35200 40200 42200 49900 70000 75900 99700 117000
2020-10-19 10:00 11.28 45000 172000 (1974) 27200 (2006) 58600 28400 35200 40200 42200 49900 70000 75900 99700 117000
2020-10-19 09:00 11.26 44900 172000 (1974) 27200 (2006) 58600 28400 35200 40200 42200 49900 70000 75900 99700 117000
2020-10-19 08:00 11.26 44900 172000 (1974) 27200 (2006) 58600 28400 35200 40200 42200 49900 70000 75900 99700 117000
2020-10-19 07:00 11.29 45100 172000 (1974) 27200 (2006) 58600 28400 35200 40200 42200 49900 70000 75900 99700 117000
2020-10-19 06:00 11.35 45400 172000 (1974) 27200 (2006) 58600 28400 35200 40200 42200 49900 70000 75900 99700 117000
2020-10-19 05:00 11.29 45100 172000 (1974) 27200 (2006) 58600 28400 35200 40200 42200 49900 70000 75900 99700 117000
2020-10-19 04:00 11.32 45200 172000 (1974) 27200 (2006) 58600 28400 35200 40200 42200 49900 70000 75900 99700 117000
2020-10-19 03:00 11.27 45000 172000 (1974) 27200 (2006) 58600 28400 35200 40200 42200 49900 70000 75900 99700 117000
2020-10-19 02:00 11.34 45300 172000 (1974) 27200 (2006) 58600 28400 35200 40200 42200 49900 70000 75900 99700 117000
2020-10-19 01:00 11.38 45500 172000 (1974) 27200 (2006) 58600 28400 35200 40200 42200 49900 70000 75900 99700 117000
2020-10-19 00:00 11.42 45700 172000 (1974) 27200 (2006) 58600 28400 35200 40200 42200 49900 70000 75900 99700 117000
2020-10-18 23:00 11.45 45900 199000 (1974) 28100 (2006) 59000 29800 35300 40500 42400 50400 68300 75000 86700 117000
2020-10-18 22:00 11.45 45900 199000 (1974) 28100 (2006) 59000 29800 35300 40500 42400 50400 68300 75000 86700 117000
2020-10-18 21:00 11.43 45800 199000 (1974) 28100 (2006) 59000 29800 35300 40500 42400 50400 68300 75000 86700 117000
2020-10-18 20:00 11.41 45700 199000 (1974) 28100 (2006) 59000 29800 35300 40500 42400 50400 68300 75000 86700 117000
2020-10-18 19:00 11.41 45700 199000 (1974) 28100 (2006) 59000 29800 35300 40500 42400 50400 68300 75000 86700 117000
2020-10-18 18:00 11.45 45900 199000 (1974) 28100 (2006) 59000 29800 35300 40500 42400 50400 68300 75000 86700 117000
2020-10-18 17:00 11.45 45900 199000 (1974) 28100 (2006) 59000 29800 35300 40500 42400 50400 68300 75000 86700 117000
2020-10-18 16:00 11.38 45500 199000 (1974) 28100 (2006) 59000 29800 35300 40500 42400 50400 68300 75000 86700 117000
2020-10-18 15:00 11.47 46000 199000 (1974) 28100 (2006) 59000 29800 35300 40500 42400 50400 68300 75000 86700 117000
2020-10-18 14:00 11.39 45600 199000 (1974) 28100 (2006) 59000 29800 35300 40500 42400 50400 68300 75000 86700 117000
2020-10-18 13:00 11.34 45300 199000 (1974) 28100 (2006) 59000 29800 35300 40500 42400 50400 68300 75000 86700 117000
2020-10-18 12:00 11.40 45600 199000 (1974) 28100 (2006) 59000 29800 35300 40500 42400 50400 68300 75000 86700 117000
2020-10-18 11:00 11.44 45800 199000 (1974) 28100 (2006) 59000 29800 35300 40500 42400 50400 68300 75000 86700 117000
2020-10-18 10:00 11.46 45900 199000 (1974) 28100 (2006) 59000 29800 35300 40500 42400 50400 68300 75000 86700 117000
2020-10-18 09:00 11.46 45900 199000 (1974) 28100 (2006) 59000 29800 35300 40500 42400 50400 68300 75000 86700 117000
2020-10-18 08:00 11.41 45700 199000 (1974) 28100 (2006) 59000 29800 35300 40500 42400 50400 68300 75000 86700 117000
2020-10-18 07:00 11.47 46000 199000 (1974) 28100 (2006) 59000 29800 35300 40500 42400 50400 68300 75000 86700 117000
2020-10-18 06:00 11.49 46100 199000 (1974) 28100 (2006) 59000 29800 35300 40500 42400 50400 68300 75000 86700 117000
2020-10-18 05:00 11.49 46100 199000 (1974) 28100 (2006) 59000 29800 35300 40500 42400 50400 68300 75000 86700 117000
2020-10-18 04:00 11.47 46000 199000 (1974) 28100 (2006) 59000 29800 35300 40500 42400 50400 68300 75000 86700 117000
2020-10-18 03:00 11.47 46000 199000 (1974) 28100 (2006) 59000 29800 35300 40500 42400 50400 68300 75000 86700 117000
2020-10-18 02:00 11.46 45900 199000 (1974) 28100 (2006) 59000 29800 35300 40500 42400 50400 68300 75000 86700 117000
2020-10-18 01:00 11.45 45900 199000 (1974) 28100 (2006) 59000 29800 35300 40500 42400 50400 68300 75000 86700 117000
2020-10-18 00:00 11.46 45900 199000 (1974) 28100 (2006) 59000 29800 35300 40500 42400 50400 68300 75000 86700 117000
2020-10-17 23:00 11.45 45900 220000 (1974) 29300 (2005) 59100 31900 35400 39800 41400 50800 65500 70400 88700 120000
2020-10-17 22:00 11.45 45900 220000 (1974) 29300 (2005) 59100 31900 35400 39800 41400 50800 65500 70400 88700 120000
2020-10-17 21:00 11.44 45800 220000 (1974) 29300 (2005) 59100 31900 35400 39800 41400 50800 65500 70400 88700 120000
2020-10-17 20:00 11.45 45900 220000 (1974) 29300 (2005) 59100 31900 35400 39800 41400 50800 65500 70400 88700 120000
2020-10-17 19:00 11.44 45800 220000 (1974) 29300 (2005) 59100 31900 35400 39800 41400 50800 65500 70400 88700 120000
2020-10-17 18:00 11.45 45900 220000 (1974) 29300 (2005) 59100 31900 35400 39800 41400 50800 65500 70400 88700 120000
2020-10-17 17:00 11.43 45800 220000 (1974) 29300 (2005) 59100 31900 35400 39800 41400 50800 65500 70400 88700 120000
2020-10-17 16:00 11.35 45400 220000 (1974) 29300 (2005) 59100 31900 35400 39800 41400 50800 65500 70400 88700 120000
2020-10-17 15:00 11.33 45300 220000 (1974) 29300 (2005) 59100 31900 35400 39800 41400 50800 65500 70400 88700 120000
2020-10-17 14:00 11.35 45400 220000 (1974) 29300 (2005) 59100 31900 35400 39800 41400 50800 65500 70400 88700 120000
2020-10-17 13:00 11.31 45200 220000 (1974) 29300 (2005) 59100 31900 35400 39800 41400 50800 65500 70400 88700 120000
2020-10-17 12:00 11.31 45200 220000 (1974) 29300 (2005) 59100 31900 35400 39800 41400 50800 65500 70400 88700 120000
2020-10-17 11:00 11.39 45600 220000 (1974) 29300 (2005) 59100 31900 35400 39800 41400 50800 65500 70400 88700 120000
2020-10-17 10:00 11.31 45200 220000 (1974) 29300 (2005) 59100 31900 35400 39800 41400 50800 65500 70400 88700 120000
2020-10-17 09:00 11.34 45300 220000 (1974) 29300 (2005) 59100 31900 35400 39800 41400 50800 65500 70400 88700 120000
2020-10-17 08:00 11.39 45600 220000 (1974) 29300 (2005) 59100 31900 35400 39800 41400 50800 65500 70400 88700 120000
2020-10-17 07:00 11.40 45600 220000 (1974) 29300 (2005) 59100 31900 35400 39800 41400 50800 65500 70400 88700 120000
2020-10-17 06:00 11.39 45600 220000 (1974) 29300 (2005) 59100 31900 35400 39800 41400 50800 65500 70400 88700 120000
2020-10-17 05:00 11.38 45500 220000 (1974) 29300 (2005) 59100 31900 35400 39800 41400 50800 65500 70400 88700 120000
2020-10-17 04:00 11.39 45600 220000 (1974) 29300 (2005) 59100 31900 35400 39800 41400 50800 65500 70400 88700 120000
2020-10-17 03:00 11.38 45500 220000 (1974) 29300 (2005) 59100 31900 35400 39800 41400 50800 65500 70400 88700 120000
2020-10-17 02:00 11.38 45500 220000 (1974) 29300 (2005) 59100 31900 35400 39800 41400 50800 65500 70400 88700 120000
2020-10-17 01:00 11.38 45500 220000 (1974) 29300 (2005) 59100 31900 35400 39800 41400 50800 65500 70400 88700 120000
2020-10-17 00:00 11.38 45500 220000 (1974) 29300 (2005) 59100 31900 35400 39800 41400 50800 65500 70400 88700 120000
2020-10-16 23:00 11.38 45500 236000 (1974) 31200 (2005) 60200 33900 35700 39000 41200 51200 67400 70600 90300 131000
2020-10-16 22:00 11.36 45400 236000 (1974) 31200 (2005) 60200 33900 35700 39000 41200 51200 67400 70600 90300 131000
2020-10-16 20:00 11.35 45400 236000 (1974) 31200 (2005) 60200 33900 35700 39000 41200 51200 67400 70600 90300 131000
2020-10-16 19:00 11.34 45300 236000 (1974) 31200 (2005) 60200 33900 35700 39000 41200 51200 67400 70600 90300 131000
2020-10-16 18:00 11.34 45300 236000 (1974) 31200 (2005) 60200 33900 35700 39000 41200 51200 67400 70600 90300 131000
2020-10-16 17:00 11.33 45300 236000 (1974) 31200 (2005) 60200 33900 35700 39000 41200 51200 67400 70600 90300 131000
2020-10-16 16:00 11.24 44800 236000 (1974) 31200 (2005) 60200 33900 35700 39000 41200 51200 67400 70600 90300 131000
2020-10-16 15:00 11.25 44900 236000 (1974) 31200 (2005) 60200 33900 35700 39000 41200 51200 67400 70600 90300 131000
2020-10-16 14:00 11.20 44600 236000 (1974) 31200 (2005) 60200 33900 35700 39000 41200 51200 67400 70600 90300 131000
2020-10-16 13:00 11.22 44700 236000 (1974) 31200 (2005) 60200 33900 35700 39000 41200 51200 67400 70600 90300 131000
2020-10-16 12:00 11.27 45000 236000 (1974) 31200 (2005) 60200 33900 35700 39000 41200 51200 67400 70600 90300 131000
2020-10-16 11:00 11.25 44900 236000 (1974) 31200 (2005) 60200 33900 35700 39000 41200 51200 67400 70600 90300 131000
2020-10-16 10:00 11.24 44800 236000 (1974) 31200 (2005) 60200 33900 35700 39000 41200 51200 67400 70600 90300 131000
2020-10-16 09:00 11.24 44800 236000 (1974) 31200 (2005) 60200 33900 35700 39000 41200 51200 67400 70600 90300 131000
2020-10-16 08:00 11.29 45100 236000 (1974) 31200 (2005) 60200 33900 35700 39000 41200 51200 67400 70600 90300 131000
2020-10-16 07:00 11.29 45100 236000 (1974) 31200 (2005) 60200 33900 35700 39000 41200 51200 67400 70600 90300 131000
2020-10-16 06:00 11.32 45200 236000 (1974) 31200 (2005) 60200 33900 35700 39000 41200 51200 67400 70600 90300 131000
2020-10-16 05:00 11.33 45300 236000 (1974) 31200 (2005) 60200 33900 35700 39000 41200 51200 67400 70600 90300 131000
2020-10-16 04:00 11.32 45200 236000 (1974) 31200 (2005) 60200 33900 35700 39000 41200 51200 67400 70600 90300 131000
2020-10-16 03:00 11.32 45200 236000 (1974) 31200 (2005) 60200 33900 35700 39000 41200 51200 67400 70600 90300 131000
2020-10-16 02:00 11.32 45200 236000 (1974) 31200 (2005) 60200 33900 35700 39000 41200 51200 67400 70600 90300 131000
2020-10-16 01:00 11.32 45200 236000 (1974) 31200 (2005) 60200 33900 35700 39000 41200 51200 67400 70600 90300 131000
2020-10-16 00:00 11.31 45200 236000 (1974) 31200 (2005) 60200 33900 35700 39000 41200 51200 67400 70600 90300 131000
2020-10-15 23:00 11.31 45200 250000 (1974) 33400 (2005) 63000 35000 36200 39200 40800 51000 68500 72100 101000 159000
2020-10-15 22:00 11.32 45200 250000 (1974) 33400 (2005) 63000 35000 36200 39200 40800 51000 68500 72100 101000 159000
2020-10-15 21:00 11.32 45200 250000 (1974) 33400 (2005) 63000 35000 36200 39200 40800 51000 68500 72100 101000 159000
2020-10-15 20:00 11.32 45200 250000 (1974) 33400 (2005) 63000 35000 36200 39200 40800 51000 68500 72100 101000 159000
2020-10-15 19:00 11.32 45200 250000 (1974) 33400 (2005) 63000 35000 36200 39200 40800 51000 68500 72100 101000 159000
2020-10-15 18:00 11.33 45300 250000 (1974) 33400 (2005) 63000 35000 36200 39200 40800 51000 68500 72100 101000 159000
2020-10-15 17:00 11.34 45300 250000 (1974) 33400 (2005) 63000 35000 36200 39200 40800 51000 68500 72100 101000 159000
2020-10-15 16:00 11.34 45300 250000 (1974) 33400 (2005) 63000 35000 36200 39200 40800 51000 68500 72100 101000 159000
2020-10-15 15:00 11.33 45300 250000 (1974) 33400 (2005) 63000 35000 36200 39200 40800 51000 68500 72100 101000 159000
2020-10-15 14:00 11.27 45000 250000 (1974) 33400 (2005) 63000 35000 36200 39200 40800 51000 68500 72100 101000 159000
2020-10-15 13:00 11.32 45200 250000 (1974) 33400 (2005) 63000 35000 36200 39200 40800 51000 68500 72100 101000 159000
2020-10-15 12:00 11.34 45300 250000 (1974) 33400 (2005) 63000 35000 36200 39200 40800 51000 68500 72100 101000 159000
2020-10-15 11:00 11.34 45300 250000 (1974) 33400 (2005) 63000 35000 36200 39200 40800 51000 68500 72100 101000 159000
2020-10-15 10:00 11.32 45200 250000 (1974) 33400 (2005) 63000 35000 36200 39200 40800 51000 68500 72100 101000 159000
2020-10-15 09:00 11.33 45300 250000 (1974) 33400 (2005) 63000 35000 36200 39200 40800 51000 68500 72100 101000 159000
2020-10-15 07:00 11.34 45300 250000 (1974) 33400 (2005) 63000 35000 36200 39200 40800 51000 68500 72100 101000 159000
2020-10-15 06:00 11.34 45300 250000 (1974) 33400 (2005) 63000 35000 36200 39200 40800 51000 68500 72100 101000 159000
2020-10-15 05:00 11.34 45300 250000 (1974) 33400 (2005) 63000 35000 36200 39200 40800 51000 68500 72100 101000 159000
2020-10-15 04:00 11.34 45300 250000 (1974) 33400 (2005) 63000 35000 36200 39200 40800 51000 68500 72100 101000 159000
2020-10-15 03:00 11.32 45200 250000 (1974) 33400 (2005) 63000 35000 36200 39200 40800 51000 68500 72100 101000 159000
2020-10-15 02:00 11.33 45300 250000 (1974) 33400 (2005) 63000 35000 36200 39200 40800 51000 68500 72100 101000 159000
2020-10-15 01:00 11.32 45200 250000 (1974) 33400 (2005) 63000 35000 36200 39200 40800 51000 68500 72100 101000 159000
2020-10-15 00:00 11.29 45100 250000 (1974) 33400 (2005) 63000 35000 36200 39200 40800 51000 68500 72100 101000 159000
2020-10-14 23:00 11.33 45300 256000 (1974) 34600 (1992) 64500 35600 36500 39700 41400 51400 69700 72800 102000 169000
2020-10-14 22:00 11.34 45300 256000 (1974) 34600 (1992) 64500 35600 36500 39700 41400 51400 69700 72800 102000 169000
2020-10-14 21:00 11.36 45400 256000 (1974) 34600 (1992) 64500 35600 36500 39700 41400 51400 69700 72800 102000 169000
2020-10-14 20:00 11.35 45400 256000 (1974) 34600 (1992) 64500 35600 36500 39700 41400 51400 69700 72800 102000 169000
2020-10-14 19:00 11.36 45400 256000 (1974) 34600 (1992) 64500 35600 36500 39700 41400 51400 69700 72800 102000 169000
2020-10-14 18:00 11.36 45400 256000 (1974) 34600 (1992) 64500 35600 36500 39700 41400 51400 69700 72800 102000 169000
2020-10-14 17:00 11.34 45300 256000 (1974) 34600 (1992) 64500 35600 36500 39700 41400 51400 69700 72800 102000 169000
2020-10-14 16:00 11.32 45200 256000 (1974) 34600 (1992) 64500 35600 36500 39700 41400 51400 69700 72800 102000 169000
2020-10-14 15:00 11.24 44800 256000 (1974) 34600 (1992) 64500 35600 36500 39700 41400 51400 69700 72800 102000 169000
2020-10-14 14:00 11.28 45000 256000 (1974) 34600 (1992) 64500 35600 36500 39700 41400 51400 69700 72800 102000 169000
2020-10-14 13:00 11.21 44700 256000 (1974) 34600 (1992) 64500 35600 36500 39700 41400 51400 69700 72800 102000 169000
2020-10-14 12:00 11.26 44900 256000 (1974) 34600 (1992) 64500 35600 36500 39700 41400 51400 69700 72800 102000 169000
2020-10-14 11:00 11.35 45400 256000 (1974) 34600 (1992) 64500 35600 36500 39700 41400 51400 69700 72800 102000 169000
2020-10-14 10:00 11.33 45300 256000 (1974) 34600 (1992) 64500 35600 36500 39700 41400 51400 69700 72800 102000 169000
2020-10-14 09:00 11.36 45400 256000 (1974) 34600 (1992) 64500 35600 36500 39700 41400 51400 69700 72800 102000 169000
2020-10-14 08:00 11.38 45500 256000 (1974) 34600 (1992) 64500 35600 36500 39700 41400 51400 69700 72800 102000 169000
2020-10-14 07:00 11.40 45600 256000 (1974) 34600 (1992) 64500 35600 36500 39700 41400 51400 69700 72800 102000 169000
2020-10-14 06:00 11.39 45600 256000 (1974) 34600 (1992) 64500 35600 36500 39700 41400 51400 69700 72800 102000 169000
2020-10-14 05:00 11.39 45600 256000 (1974) 34600 (1992) 64500 35600 36500 39700 41400 51400 69700 72800 102000 169000
2020-10-14 04:00 11.39 45600 256000 (1974) 34600 (1992) 64500 35600 36500 39700 41400 51400 69700 72800 102000 169000
2020-10-14 03:00 11.39 45600 256000 (1974) 34600 (1992) 64500 35600 36500 39700 41400 51400 69700 72800 102000 169000
2020-10-14 02:00 11.41 45700 256000 (1974) 34600 (1992) 64500 35600 36500 39700 41400 51400 69700 72800 102000 169000
2020-10-14 01:00 11.41 45700 256000 (1974) 34600 (1992) 64500 35600 36500 39700 41400 51400 69700 72800 102000 169000
2020-10-14 00:00 11.41 45700 256000 (1974) 34600 (1992) 64500 35600 36500 39700 41400 51400 69700 72800 102000 169000
2020-10-13 23:00 11.42 45700 251000 (1974) 33800 (2004) 65100 35400 36500 39700 41800 52100 72300 74100 106000 172000
2020-10-13 22:00 11.42 45700 251000 (1974) 33800 (2004) 65100 35400 36500 39700 41800 52100 72300 74100 106000 172000
2020-10-13 21:00 11.41 45700 251000 (1974) 33800 (2004) 65100 35400 36500 39700 41800 52100 72300 74100 106000 172000
2020-10-13 20:00 11.42 45700 251000 (1974) 33800 (2004) 65100 35400 36500 39700 41800 52100 72300 74100 106000 172000
2020-10-13 19:00 11.44 45800 251000 (1974) 33800 (2004) 65100 35400 36500 39700 41800 52100 72300 74100 106000 172000
2020-10-13 18:00 11.44 45800 251000 (1974) 33800 (2004) 65100 35400 36500 39700 41800 52100 72300 74100 106000 172000
2020-10-13 17:00 11.45 45900 251000 (1974) 33800 (2004) 65100 35400 36500 39700 41800 52100 72300 74100 106000 172000
2020-10-13 16:00 11.43 45800 251000 (1974) 33800 (2004) 65100 35400 36500 39700 41800 52100 72300 74100 106000 172000
2020-10-13 15:00 11.38 45500 251000 (1974) 33800 (2004) 65100 35400 36500 39700 41800 52100 72300 74100 106000 172000
2020-10-13 14:00 11.39 45600 251000 (1974) 33800 (2004) 65100 35400 36500 39700 41800 52100 72300 74100 106000 172000
2020-10-13 13:00 11.36 45400 251000 (1974) 33800 (2004) 65100 35400 36500 39700 41800 52100 72300 74100 106000 172000
2020-10-13 12:00 11.43 45800 251000 (1974) 33800 (2004) 65100 35400 36500 39700 41800 52100 72300 74100 106000 172000
2020-10-13 11:00 11.49 46100 251000 (1974) 33800 (2004) 65100 35400 36500 39700 41800 52100 72300 74100 106000 172000
2020-10-13 10:00 11.43 45800 251000 (1974) 33800 (2004) 65100 35400 36500 39700 41800 52100 72300 74100 106000 172000
2020-10-13 09:00 11.51 46200 251000 (1974) 33800 (2004) 65100 35400 36500 39700 41800 52100 72300 74100 106000 172000
2020-10-13 08:00 11.52 46200 251000 (1974) 33800 (2004) 65100 35400 36500 39700 41800 52100 72300 74100 106000 172000
2020-10-13 07:00 11.53 46300 251000 (1974) 33800 (2004) 65100 35400 36500 39700 41800 52100 72300 74100 106000 172000
2020-10-13 06:00 11.54 46300 251000 (1974) 33800 (2004) 65100 35400 36500 39700 41800 52100 72300 74100 106000 172000
2020-10-13 05:00 11.54 46300 251000 (1974) 33800 (2004) 65100 35400 36500 39700 41800 52100 72300 74100 106000 172000
2020-10-13 04:00 11.56 46400 251000 (1974) 33800 (2004) 65100 35400 36500 39700 41800 52100 72300 74100 106000 172000
2020-10-13 03:00 11.56 46400 251000 (1974) 33800 (2004) 65100 35400 36500 39700 41800 52100 72300 74100 106000 172000
2020-10-13 02:00 11.58 46500 251000 (1974) 33800 (2004) 65100 35400 36500 39700 41800 52100 72300 74100 106000 172000
2020-10-13 01:00 11.58 46500 251000 (1974) 33800 (2004) 65100 35400 36500 39700 41800 52100 72300 74100 106000 172000
2020-10-13 00:00 11.60 46600 251000 (1974) 33800 (2004) 65100 35400 36500 39700 41800 52100 72300 74100 106000 172000
2020-10-12 23:00 11.61 46700 207000 (1974) 33500 (2004) 64900 35000 36200 39800 40900 51900 76300 79100 96100 194000
2020-10-12 22:00 11.61 46700 207000 (1974) 33500 (2004) 64900 35000 36200 39800 40900 51900 76300 79100 96100 194000
2020-10-12 21:00 11.61 46700 207000 (1974) 33500 (2004) 64900 35000 36200 39800 40900 51900 76300 79100 96100 194000
2020-10-12 20:00 11.62 46700 207000 (1974) 33500 (2004) 64900 35000 36200 39800 40900 51900 76300 79100 96100 194000
2020-10-12 19:00 11.62 46700 207000 (1974) 33500 (2004) 64900 35000 36200 39800 40900 51900 76300 79100 96100 194000
2020-10-12 18:00 11.64 46800 207000 (1974) 33500 (2004) 64900 35000 36200 39800 40900 51900 76300 79100 96100 194000
2020-10-12 17:00 11.64 46800 207000 (1974) 33500 (2004) 64900 35000 36200 39800 40900 51900 76300 79100 96100 194000
2020-10-12 16:00 11.63 46800 207000 (1974) 33500 (2004) 64900 35000 36200 39800 40900 51900 76300 79100 96100 194000
2020-10-12 15:00 11.54 46300 207000 (1974) 33500 (2004) 64900 35000 36200 39800 40900 51900 76300 79100 96100 194000
2020-10-12 14:00 11.67 47000 207000 (1974) 33500 (2004) 64900 35000 36200 39800 40900 51900 76300 79100 96100 194000
2020-10-12 13:00 11.58 46500 207000 (1974) 33500 (2004) 64900 35000 36200 39800 40900 51900 76300 79100 96100 194000
2020-10-12 12:00 11.59 46600 207000 (1974) 33500 (2004) 64900 35000 36200 39800 40900 51900 76300 79100 96100 194000
2020-10-12 11:00 11.55 46400 207000 (1974) 33500 (2004) 64900 35000 36200 39800 40900 51900 76300 79100 96100 194000
2020-10-12 10:00 11.61 46700 207000 (1974) 33500 (2004) 64900 35000 36200 39800 40900 51900 76300 79100 96100 194000
2020-10-12 09:00 11.60 46600 207000 (1974) 33500 (2004) 64900 35000 36200 39800 40900 51900 76300 79100 96100 194000
2020-10-12 08:00 11.61 46700 207000 (1974) 33500 (2004) 64900 35000 36200 39800 40900 51900 76300 79100 96100 194000
2020-10-12 07:00 11.66 46900 207000 (1974) 33500 (2004) 64900 35000 36200 39800 40900 51900 76300 79100 96100 194000
2020-10-12 06:00 11.68 47000 207000 (1974) 33500 (2004) 64900 35000 36200 39800 40900 51900 76300 79100 96100 194000
2020-10-12 05:00 11.59 46600 207000 (1974) 33500 (2004) 64900 35000 36200 39800 40900 51900 76300 79100 96100 194000
2020-10-12 04:00 11.58 46500 207000 (1974) 33500 (2004) 64900 35000 36200 39800 40900 51900 76300 79100 96100 194000
2020-10-12 03:00 11.72 47300 207000 (1974) 33500 (2004) 64900 35000 36200 39800 40900 51900 76300 79100 96100 194000
2020-10-12 02:00 11.71 47200 207000 (1974) 33500 (2004) 64900 35000 36200 39800 40900 51900 76300 79100 96100 194000
2020-10-12 01:00 11.67 47000 207000 (1974) 33500 (2004) 64900 35000 36200 39800 40900 51900 76300 79100 96100 194000
2020-10-12 00:00 11.58 46500 207000 (1974) 33500 (2004) 64900 35000 36200 39800 40900 51900 76300 79100 96100 194000
2020-10-11 23:00 11.66 46900 219000 (2019) 33500 (2004) 63600 34900 36300 39700 41400 52100 71500 77500 93100 170000
2020-10-11 22:00 11.69 47100 219000 (2019) 33500 (2004) 63600 34900 36300 39700 41400 52100 71500 77500 93100 170000
2020-10-11 21:00 11.72 47300 219000 (2019) 33500 (2004) 63600 34900 36300 39700 41400 52100 71500 77500 93100 170000
2020-10-11 20:00 11.65 46900 219000 (2019) 33500 (2004) 63600 34900 36300 39700 41400 52100 71500 77500 93100 170000
2020-10-11 19:00 11.64 46800 219000 (2019) 33500 (2004) 63600 34900 36300 39700 41400 52100 71500 77500 93100 170000
2020-10-11 18:00 11.63 46800 219000 (2019) 33500 (2004) 63600 34900 36300 39700 41400 52100 71500 77500 93100 170000
2020-10-11 17:00 11.59 46600 219000 (2019) 33500 (2004) 63600 34900 36300 39700 41400 52100 71500 77500 93100 170000
2020-10-11 16:00 11.62 46700 219000 (2019) 33500 (2004) 63600 34900 36300 39700 41400 52100 71500 77500 93100 170000
2020-10-11 15:00 11.61 46700 219000 (2019) 33500 (2004) 63600 34900 36300 39700 41400 52100 71500 77500 93100 170000
2020-10-11 14:00 11.67 47000 219000 (2019) 33500 (2004) 63600 34900 36300 39700 41400 52100 71500 77500 93100 170000
2020-10-11 13:00 11.69 47100 219000 (2019) 33500 (2004) 63600 34900 36300 39700 41400 52100 71500 77500 93100 170000
2020-10-11 12:00 11.65 46900 219000 (2019) 33500 (2004) 63600 34900 36300 39700 41400 52100 71500 77500 93100 170000
2020-10-11 11:00 11.61 46700 219000 (2019) 33500 (2004) 63600 34900 36300 39700 41400 52100 71500 77500 93100 170000
2020-10-11 10:00 11.70 47200 219000 (2019) 33500 (2004) 63600 34900 36300 39700 41400 52100 71500 77500 93100 170000
2020-10-11 09:00 11.71 47200 219000 (2019) 33500 (2004) 63600 34900 36300 39700 41400 52100 71500 77500 93100 170000
2020-10-11 08:00 11.72 47300 219000 (2019) 33500 (2004) 63600 34900 36300 39700 41400 52100 71500 77500 93100 170000
2020-10-11 07:00 11.74 47400 219000 (2019) 33500 (2004) 63600 34900 36300 39700 41400 52100 71500 77500 93100 170000
2020-10-11 06:00 11.75 47400 219000 (2019) 33500 (2004) 63600 34900 36300 39700 41400 52100 71500 77500 93100 170000
2020-10-11 05:00 11.75 47400 219000 (2019) 33500 (2004) 63600 34900 36300 39700 41400 52100 71500 77500 93100 170000
2020-10-11 04:00 11.75 47400 219000 (2019) 33500 (2004) 63600 34900 36300 39700 41400 52100 71500 77500 93100 170000
2020-10-11 03:00 11.74 47400 219000 (2019) 33500 (2004) 63600 34900 36300 39700 41400 52100 71500 77500 93100 170000
2020-10-11 02:00 11.74 47400 219000 (2019) 33500 (2004) 63600 34900 36300 39700 41400 52100 71500 77500 93100 170000
2020-10-11 01:00 11.74 47400 219000 (2019) 33500 (2004) 63600 34900 36300 39700 41400 52100 71500 77500 93100 170000
2020-10-11 00:00 11.74 47400 219000 (2019) 33500 (2004) 63600 34900 36300 39700 41400 52100 71500 77500 93100 170000
2020-10-10 23:00 11.75 47400 215000 (2019) 33300 (2004) 62100 35200 36200 40300 42100 51500 72900 78100 92600 134000
2020-10-10 22:00 11.75 47400 215000 (2019) 33300 (2004) 62100 35200 36200 40300 42100 51500 72900 78100 92600 134000
2020-10-10 21:00 11.77 47500 215000 (2019) 33300 (2004) 62100 35200 36200 40300 42100 51500 72900 78100 92600 134000
2020-10-10 20:00 11.76 47500 215000 (2019) 33300 (2004) 62100 35200 36200 40300 42100 51500 72900 78100 92600 134000
2020-10-10 19:00 11.78 47600 215000 (2019) 33300 (2004) 62100 35200 36200 40300 42100 51500 72900 78100 92600 134000
2020-10-10 18:00 11.79 47600 215000 (2019) 33300 (2004) 62100 35200 36200 40300 42100 51500 72900 78100 92600 134000
2020-10-10 17:00 11.77 47500 215000 (2019) 33300 (2004) 62100 35200 36200 40300 42100 51500 72900 78100 92600 134000
2020-10-10 16:00 11.80 47700 215000 (2019) 33300 (2004) 62100 35200 36200 40300 42100 51500 72900 78100 92600 134000
2020-10-10 15:00 11.80 47700 215000 (2019) 33300 (2004) 62100 35200 36200 40300 42100 51500 72900 78100 92600 134000
2020-10-10 14:00 11.80 47700 215000 (2019) 33300 (2004) 62100 35200 36200 40300 42100 51500 72900 78100 92600 134000
2020-10-10 13:00 11.81 47700 215000 (2019) 33300 (2004) 62100 35200 36200 40300 42100 51500 72900 78100 92600 134000
2020-10-10 12:00 11.81 47700 215000 (2019) 33300 (2004) 62100 35200 36200 40300 42100 51500 72900 78100 92600 134000
2020-10-10 11:00 11.80 47700 215000 (2019) 33300 (2004) 62100 35200 36200 40300 42100 51500 72900 78100 92600 134000
2020-10-10 10:00 11.79 47600 215000 (2019) 33300 (2004) 62100 35200 36200 40300 42100 51500 72900 78100 92600 134000
2020-10-10 09:00 11.79 47600 215000 (2019) 33300 (2004) 62100 35200 36200 40300 42100 51500 72900 78100 92600 134000
2020-10-10 08:00 11.80 47700 215000 (2019) 33300 (2004) 62100 35200 36200 40300 42100 51500 72900 78100 92600 134000
2020-10-10 07:00 11.81 47700 215000 (2019) 33300 (2004) 62100 35200 36200 40300 42100 51500 72900 78100 92600 134000
2020-10-10 06:00 11.83 47800 215000 (2019) 33300 (2004) 62100 35200 36200 40300 42100 51500 72900 78100 92600 134000
2020-10-10 05:00 11.82 47800 215000 (2019) 33300 (2004) 62100 35200 36200 40300 42100 51500 72900 78100 92600 134000
2020-10-10 04:00 11.83 47800 215000 (2019) 33300 (2004) 62100 35200 36200 40300 42100 51500 72900 78100 92600 134000
2020-10-10 03:00 11.83 47800 215000 (2019) 33300 (2004) 62100 35200 36200 40300 42100 51500 72900 78100 92600 134000
2020-10-10 02:00 11.82 47800 215000 (2019) 33300 (2004) 62100 35200 36200 40300 42100 51500 72900 78100 92600 134000
2020-10-10 01:00 11.83 47800 215000 (2019) 33300 (2004) 62100 35200 36200 40300 42100 51500 72900 78100 92600 134000
2020-10-10 00:00 11.76 47500 215000 (2019) 33300 (2004) 62100 35200 36200 40300 42100 51500 72900 78100 92600 134000
2020-10-09 23:00 11.84 47900 200000 (2019) 33100 (2004) 61200 35400 36100 41100 42500 52100 71700 76300 96400 108000
2020-10-09 22:00 11.83 47800 200000 (2019) 33100 (2004) 61200 35400 36100 41100 42500 52100 71700 76300 96400 108000
2020-10-09 21:00 11.83 47800 200000 (2019) 33100 (2004) 61200 35400 36100 41100 42500 52100 71700 76300 96400 108000
2020-10-09 20:00 11.83 47800 200000 (2019) 33100 (2004) 61200 35400 36100 41100 42500 52100 71700 76300 96400 108000
2020-10-09 19:00 11.78 47600 200000 (2019) 33100 (2004) 61200 35400 36100 41100 42500 52100 71700 76300 96400 108000
2020-10-09 18:00 11.82 47800 200000 (2019) 33100 (2004) 61200 35400 36100 41100 42500 52100 71700 76300 96400 108000
2020-10-09 17:00 11.82 47800 200000 (2019) 33100 (2004) 61200 35400 36100 41100 42500 52100 71700 76300 96400 108000
2020-10-09 16:00 11.82 47800 200000 (2019) 33100 (2004) 61200 35400 36100 41100 42500 52100 71700 76300 96400 108000
2020-10-09 15:00 11.78 47600 200000 (2019) 33100 (2004) 61200 35400 36100 41100 42500 52100 71700 76300 96400 108000
2020-10-09 14:00 11.82 47800 200000 (2019) 33100 (2004) 61200 35400 36100 41100 42500 52100 71700 76300 96400 108000
2020-10-09 13:00 11.81 47700 200000 (2019) 33100 (2004) 61200 35400 36100 41100 42500 52100 71700 76300 96400 108000
2020-10-09 12:00 11.72 47300 200000 (2019) 33100 (2004) 61200 35400 36100 41100 42500 52100 71700 76300 96400 108000
2020-10-09 11:00 11.81 47700 200000 (2019) 33100 (2004) 61200 35400 36100 41100 42500 52100 71700 76300 96400 108000
2020-10-09 10:00 11.81 47700 200000 (2019) 33100 (2004) 61200 35400 36100 41100 42500 52100 71700 76300 96400 108000
2020-10-09 09:00 11.82 47800 200000 (2019) 33100 (2004) 61200 35400 36100 41100 42500 52100 71700 76300 96400 108000
2020-10-09 08:00 11.81 47700 200000 (2019) 33100 (2004) 61200 35400 36100 41100 42500 52100 71700 76300 96400 108000
2020-10-09 07:00 11.82 47800 200000 (2019) 33100 (2004) 61200 35400 36100 41100 42500 52100 71700 76300 96400 108000
2020-10-09 06:00 11.82 47800 200000 (2019) 33100 (2004) 61200 35400 36100 41100 42500 52100 71700 76300 96400 108000
2020-10-09 05:00 11.81 47700 200000 (2019) 33100 (2004) 61200 35400 36100 41100 42500 52100 71700 76300 96400 108000
2020-10-09 04:00 11.60 46600 200000 (2019) 33100 (2004) 61200 35400 36100 41100 42500 52100 71700 76300 96400 108000
2020-10-09 03:00 11.82 47800 200000 (2019) 33100 (2004) 61200 35400 36100 41100 42500 52100 71700 76300 96400 108000
2020-10-09 02:00 11.82 47800 200000 (2019) 33100 (2004) 61200 35400 36100 41100 42500 52100 71700 76300 96400 108000
2020-10-09 01:00 11.83 47800 200000 (2019) 33100 (2004) 61200 35400 36100 41100 42500 52100 71700 76300 96400 108000
2020-10-09 00:00 11.83 47800 200000 (2019) 33100 (2004) 61200 35400 36100 41100 42500 52100 71700 76300 96400 108000
2020-10-08 23:00 11.83 47800 187000 (2020) 33100 (2004) 60600 35200 36600 40100 42600 52600 73700 77900 86500 123000
2020-10-08 22:00 11.73 47300 187000 (2020) 33100 (2004) 60600 35200 36600 40100 42600 52600 73700 77900 86500 123000
2020-10-08 21:00 11.84 47900 187000 (2020) 33100 (2004) 60600 35200 36600 40100 42600 52600 73700 77900 86500 123000
2020-10-08 20:00 11.86 48000 187000 (2020) 33100 (2004) 60600 35200 36600 40100 42600 52600 73700 77900 86500 123000
2020-10-08 19:00 11.86 48000 187000 (2020) 33100 (2004) 60600 35200 36600 40100 42600 52600 73700 77900 86500 123000
2020-10-08 18:00 11.85 47900 187000 (2020) 33100 (2004) 60600 35200 36600 40100 42600 52600 73700 77900 86500 123000
2020-10-08 17:00 11.86 48000 187000 (2020) 33100 (2004) 60600 35200 36600 40100 42600 52600 73700 77900 86500 123000
2020-10-08 16:00 11.87 48000 187000 (2020) 33100 (2004) 60600 35200 36600 40100 42600 52600 73700 77900 86500 123000
2020-10-08 15:00 11.87 48000 187000 (2020) 33100 (2004) 60600 35200 36600 40100 42600 52600 73700 77900 86500 123000
2020-10-08 14:00 11.88 48100 187000 (2020) 33100 (2004) 60600 35200 36600 40100 42600 52600 73700 77900 86500 123000
2020-10-08 13:00 11.85 47900 187000 (2020) 33100 (2004) 60600 35200 36600 40100 42600 52600 73700 77900 86500 123000
2020-10-08 12:00 11.87 48000 187000 (2020) 33100 (2004) 60600 35200 36600 40100 42600 52600 73700 77900 86500 123000
2020-10-08 11:00 11.83 47800 187000 (2020) 33100 (2004) 60600 35200 36600 40100 42600 52600 73700 77900 86500 123000
2020-10-08 10:00 11.81 47700 187000 (2020) 33100 (2004) 60600 35200 36600 40100 42600 52600 73700 77900 86500 123000
2020-10-08 09:00 11.83 47800 187000 (2020) 33100 (2004) 60600 35200 36600 40100 42600 52600 73700 77900 86500 123000
2020-10-08 08:00 11.88 48100 187000 (2020) 33100 (2004) 60600 35200 36600 40100 42600 52600 73700 77900 86500 123000
2020-10-08 07:00 11.89 48100 187000 (2020) 33100 (2004) 60600 35200 36600 40100 42600 52600 73700 77900 86500 123000
2020-10-08 06:00 11.89 48100 187000 (2020) 33100 (2004) 60600 35200 36600 40100 42600 52600 73700 77900 86500 123000
2020-10-08 05:00 11.89 48100 187000 (2020) 33100 (2004) 60600 35200 36600 40100 42600 52600 73700 77900 86500 123000
2020-10-08 04:00 11.89 48100 187000 (2020) 33100 (2004) 60600 35200 36600 40100 42600 52600 73700 77900 86500 123000
2020-10-08 03:00 11.88 48100 187000 (2020) 33100 (2004) 60600 35200 36600 40100 42600 52600 73700 77900 86500 123000
2020-10-08 02:00 11.88 48100 187000 (2020) 33100 (2004) 60600 35200 36600 40100 42600 52600 73700 77900 86500 123000
2020-10-08 01:00 11.87 48000 187000 (2020) 33100 (2004) 60600 35200 36600 40100 42600 52600 73700 77900 86500 123000
2020-10-08 00:00 11.88 48100 187000 (2020) 33100 (2004) 60600 35200 36600 40100 42600 52600 73700 77900 86500 123000
2020-10-07 23:00 11.88 48100 186000 (2020) 33700 (2004) 59700 35700 36700 39400 41300 50800 68500 73700 90700 124000
2020-10-07 22:00 11.88 48100 186000 (2020) 33700 (2004) 59700 35700 36700 39400 41300 50800 68500 73700 90700 124000
2020-10-07 21:00 11.88 48100 186000 (2020) 33700 (2004) 59700 35700 36700 39400 41300 50800 68500 73700 90700 124000
2020-10-07 20:00 11.89 48100 186000 (2020) 33700 (2004) 59700 35700 36700 39400 41300 50800 68500 73700 90700 124000
2020-10-07 19:00 11.88 48100 186000 (2020) 33700 (2004) 59700 35700 36700 39400 41300 50800 68500 73700 90700 124000
2020-10-07 18:00 11.88 48100 186000 (2020) 33700 (2004) 59700 35700 36700 39400 41300 50800 68500 73700 90700 124000
2020-10-07 17:00 11.85 47900 186000 (2020) 33700 (2004) 59700 35700 36700 39400 41300 50800 68500 73700 90700 124000
2020-10-07 16:00 11.88 48100 186000 (2020) 33700 (2004) 59700 35700 36700 39400 41300 50800 68500 73700 90700 124000
2020-10-07 15:00 11.88 48100 186000 (2020) 33700 (2004) 59700 35700 36700 39400 41300 50800 68500 73700 90700 124000
2020-10-07 14:00 11.86 48000 186000 (2020) 33700 (2004) 59700 35700 36700 39400 41300 50800 68500 73700 90700 124000
2020-10-07 13:00 11.87 48000 186000 (2020) 33700 (2004) 59700 35700 36700 39400 41300 50800 68500 73700 90700 124000
2020-10-07 12:00 11.87 48000 186000 (2020) 33700 (2004) 59700 35700 36700 39400 41300 50800 68500 73700 90700 124000
2020-10-07 11:00 11.87 48000 186000 (2020) 33700 (2004) 59700 35700 36700 39400 41300 50800 68500 73700 90700 124000
2020-10-07 10:00 11.86 48000 186000 (2020) 33700 (2004) 59700 35700 36700 39400 41300 50800 68500 73700 90700 124000
2020-10-07 09:00 11.86 48000 186000 (2020) 33700 (2004) 59700 35700 36700 39400 41300 50800 68500 73700 90700 124000
2020-10-07 08:00 11.86 48000 186000 (2020) 33700 (2004) 59700 35700 36700 39400 41300 50800 68500 73700 90700 124000
2020-10-07 07:00 11.87 48000 186000 (2020) 33700 (2004) 59700 35700 36700 39400 41300 50800 68500 73700 90700 124000
2020-10-07 06:00 11.87 48000 186000 (2020) 33700 (2004) 59700 35700 36700 39400 41300 50800 68500 73700 90700 124000
2020-10-07 05:00 11.87 48000 186000 (2020) 33700 (2004) 59700 35700 36700 39400 41300 50800 68500 73700 90700 124000
2020-10-07 04:00 11.87 48000 186000 (2020) 33700 (2004) 59700 35700 36700 39400 41300 50800 68500 73700 90700 124000
2020-10-07 03:00 11.86 48000 186000 (2020) 33700 (2004) 59700 35700 36700 39400 41300 50800 68500 73700 90700 124000
2020-10-07 02:00 11.86 48000 186000 (2020) 33700 (2004) 59700 35700 36700 39400 41300 50800 68500 73700 90700 124000
2020-10-07 01:00 11.85 47900 186000 (2020) 33700 (2004) 59700 35700 36700 39400 41300 50800 68500 73700 90700 124000
2020-10-07 00:00 11.85 47900 186000 (2020) 33700 (2004) 59700 35700 36700 39400 41300 50800 68500 73700 90700 124000
2020-10-06 23:00 11.84 47900 206000 (1999) 33800 (1958) 61100 35800 37100 39200 41100 52400 69500 72900 98300 134000
2020-10-06 22:00 11.84 47900 206000 (1999) 33800 (1958) 61100 35800 37100 39200 41100 52400 69500 72900 98300 134000
2020-10-06 21:00 11.84 47900 206000 (1999) 33800 (1958) 61100 35800 37100 39200 41100 52400 69500 72900 98300 134000
2020-10-06 20:00 11.84 47900 206000 (1999) 33800 (1958) 61100 35800 37100 39200 41100 52400 69500 72900 98300 134000
2020-10-06 19:00 11.84 47900 206000 (1999) 33800 (1958) 61100 35800 37100 39200 41100 52400 69500 72900 98300 134000
2020-10-06 18:00 11.84 47900 206000 (1999) 33800 (1958) 61100 35800 37100 39200 41100 52400 69500 72900 98300 134000
2020-10-06 17:00 11.85 47900 206000 (1999) 33800 (1958) 61100 35800 37100 39200 41100 52400 69500 72900 98300 134000
2020-10-06 16:00 11.84 47900 206000 (1999) 33800 (1958) 61100 35800 37100 39200 41100 52400 69500 72900 98300 134000
2020-10-06 15:00 11.85 47900 206000 (1999) 33800 (1958) 61100 35800 37100 39200 41100 52400 69500 72900 98300 134000
2020-10-06 14:00 11.85 47900 206000 (1999) 33800 (1958) 61100 35800 37100 39200 41100 52400 69500 72900 98300 134000
2020-10-06 13:00 11.85 47900 206000 (1999) 33800 (1958) 61100 35800 37100 39200 41100 52400 69500 72900 98300 134000
2020-10-06 12:00 11.85 47900 206000 (1999) 33800 (1958) 61100 35800 37100 39200 41100 52400 69500 72900 98300 134000
2020-10-06 11:00 11.84 47900 206000 (1999) 33800 (1958) 61100 35800 37100 39200 41100 52400 69500 72900 98300 134000
2020-10-06 10:00 11.84 47900 206000 (1999) 33800 (1958) 61100 35800 37100 39200 41100 52400 69500 72900 98300 134000
2020-10-06 09:00 11.84 47900 206000 (1999) 33800 (1958) 61100 35800 37100 39200 41100 52400 69500 72900 98300 134000
2020-10-06 08:00 11.85 47900 206000 (1999) 33800 (1958) 61100 35800 37100 39200 41100 52400 69500 72900 98300 134000
2020-10-06 07:00 11.86 48000 206000 (1999) 33800 (1958) 61100 35800 37100 39200 41100 52400 69500 72900 98300 134000
2020-10-06 06:00 11.86 48000 206000 (1999) 33800 (1958) 61100 35800 37100 39200 41100 52400 69500 72900 98300 134000
2020-10-06 05:00 11.86 48000 206000 (1999) 33800 (1958) 61100 35800 37100 39200 41100 52400 69500 72900 98300 134000
2020-10-06 04:00 11.86 48000 206000 (1999) 33800 (1958) 61100 35800 37100 39200 41100 52400 69500 72900 98300 134000
2020-10-06 03:00 11.86 48000 206000 (1999) 33800 (1958) 61100 35800 37100 39200 41100 52400 69500 72900 98300 134000
2020-10-06 02:00 11.85 47900 206000 (1999) 33800 (1958) 61100 35800 37100 39200 41100 52400 69500 72900 98300 134000
2020-10-06 01:00 11.85 47900 206000 (1999) 33800 (1958) 61100 35800 37100 39200 41100 52400 69500 72900 98300 134000
2020-10-06 00:00 11.84 47900 206000 (1999) 33800 (1958) 61100 35800 37100 39200 41100 52400 69500 72900 98300 134000
2020-10-05 23:00 11.84 47900 191000 (2020) 33500 (2004) 61200 36100 37100 39200 40000 50400 71400 75200 106000 147000
2020-10-05 22:00 11.84 47900 191000 (2020) 33500 (2004) 61200 36100 37100 39200 40000 50400 71400 75200 106000 147000
2020-10-05 21:00 11.84 47900 191000 (2020) 33500 (2004) 61200 36100 37100 39200 40000 50400 71400 75200 106000 147000
2020-10-05 20:00 11.83 47800 191000 (2020) 33500 (2004) 61200 36100 37100 39200 40000 50400 71400 75200 106000 147000
2020-10-05 19:00 11.83 47800 191000 (2020) 33500 (2004) 61200 36100 37100 39200 40000 50400 71400 75200 106000 147000
2020-10-05 18:00 11.82 47800 191000 (2020) 33500 (2004) 61200 36100 37100 39200 40000 50400 71400 75200 106000 147000
2020-10-05 17:00 11.79 47600 191000 (2020) 33500 (2004) 61200 36100 37100 39200 40000 50400 71400 75200 106000 147000
2020-10-05 16:00 11.79 47600 191000 (2020) 33500 (2004) 61200 36100 37100 39200 40000 50400 71400 75200 106000 147000
2020-10-05 15:00 11.81 47700 191000 (2020) 33500 (2004) 61200 36100 37100 39200 40000 50400 71400 75200 106000 147000
2020-10-05 14:00 11.79 47600 191000 (2020) 33500 (2004) 61200 36100 37100 39200 40000 50400 71400 75200 106000 147000
2020-10-05 13:00 11.76 47500 191000 (2020) 33500 (2004) 61200 36100 37100 39200 40000 50400 71400 75200 106000 147000
2020-10-05 12:00 11.73 47300 191000 (2020) 33500 (2004) 61200 36100 37100 39200 40000 50400 71400 75200 106000 147000
2020-10-05 11:00 11.75 47400 191000 (2020) 33500 (2004) 61200 36100 37100 39200 40000 50400 71400 75200 106000 147000
2020-10-05 10:00 11.74 47400 191000 (2020) 33500 (2004) 61200 36100 37100 39200 40000 50400 71400 75200 106000 147000
2020-10-05 09:00 11.72 47300 191000 (2020) 33500 (2004) 61200 36100 37100 39200 40000 50400 71400 75200 106000 147000
2020-10-05 08:00 11.73 47300 191000 (2020) 33500 (2004) 61200 36100 37100 39200 40000 50400 71400 75200 106000 147000
2020-10-05 07:00 11.72 47300 191000 (2020) 33500 (2004) 61200 36100 37100 39200 40000 50400 71400 75200 106000 147000
2020-10-05 06:00 11.70 47200 191000 (2020) 33500 (2004) 61200 36100 37100 39200 40000 50400 71400 75200 106000 147000
2020-10-05 05:00 11.70 47200 191000 (2020) 33500 (2004) 61200 36100 37100 39200 40000 50400 71400 75200 106000 147000
2020-10-05 04:00 11.67 47000 191000 (2020) 33500 (2004) 61200 36100 37100 39200 40000 50400 71400 75200 106000 147000
2020-10-05 03:00 11.65 46900 191000 (2020) 33500 (2004) 61200 36100 37100 39200 40000 50400 71400 75200 106000 147000
2020-10-05 02:00 11.65 46900 191000 (2020) 33500 (2004) 61200 36100 37100 39200 40000 50400 71400 75200 106000 147000
2020-10-05 01:00 11.63 46800 191000 (2020) 33500 (2004) 61200 36100 37100 39200 40000 50400 71400 75200 106000 147000
2020-10-05 00:00 11.62 46700 191000 (2020) 33500 (2004) 61200 36100 37100 39200 40000 50400 71400 75200 106000 147000
2020-10-04 23:00 11.60 46600 186000 (2020) 33600 (2004) 60800 36500 37700 38800 39900 49400 68300 77100 105000 134000
2020-10-04 22:00 11.59 46600 186000 (2020) 33600 (2004) 60800 36500 37700 38800 39900 49400 68300 77100 105000 134000
2020-10-04 21:00 11.58 46500 186000 (2020) 33600 (2004) 60800 36500 37700 38800 39900 49400 68300 77100 105000 134000
2020-10-04 20:00 11.55 46400 186000 (2020) 33600 (2004) 60800 36500 37700 38800 39900 49400 68300 77100 105000 134000
2020-10-04 19:00 11.54 46300 186000 (2020) 33600 (2004) 60800 36500 37700 38800 39900 49400 68300 77100 105000 134000
2020-10-04 18:00 11.51 46200 186000 (2020) 33600 (2004) 60800 36500 37700 38800 39900 49400 68300 77100 105000 134000
2020-10-04 17:00 11.43 45800 186000 (2020) 33600 (2004) 60800 36500 37700 38800 39900 49400 68300 77100 105000 134000
2020-10-04 16:00 11.51 46200 186000 (2020) 33600 (2004) 60800 36500 37700 38800 39900 49400 68300 77100 105000 134000
2020-10-04 15:00 11.49 46100 186000 (2020) 33600 (2004) 60800 36500 37700 38800 39900 49400 68300 77100 105000 134000
2020-10-04 14:00 11.48 46000 186000 (2020) 33600 (2004) 60800 36500 37700 38800 39900 49400 68300 77100 105000 134000
2020-10-04 13:00 11.46 45900 186000 (2020) 33600 (2004) 60800 36500 37700 38800 39900 49400 68300 77100 105000 134000
2020-10-04 12:00 11.47 46000 186000 (2020) 33600 (2004) 60800 36500 37700 38800 39900 49400 68300 77100 105000 134000
2020-10-04 11:00 11.47 46000 186000 (2020) 33600 (2004) 60800 36500 37700 38800 39900 49400 68300 77100 105000 134000
2020-10-04 10:00 11.44 45800 186000 (2020) 33600 (2004) 60800 36500 37700 38800 39900 49400 68300 77100 105000 134000
2020-10-04 09:00 11.45 45900 186000 (2020) 33600 (2004) 60800 36500 37700 38800 39900 49400 68300 77100 105000 134000
2020-10-04 08:00 11.45 45900 186000 (2020) 33600 (2004) 60800 36500 37700 38800 39900 49400 68300 77100 105000 134000
2020-10-04 07:00 11.47 46000 186000 (2020) 33600 (2004) 60800 36500 37700 38800 39900 49400 68300 77100 105000 134000
2020-10-04 06:00 11.46 45900 186000 (2020) 33600 (2004) 60800 36500 37700 38800 39900 49400 68300 77100 105000 134000
2020-10-04 05:00 11.46 45900 186000 (2020) 33600 (2004) 60800 36500 37700 38800 39900 49400 68300 77100 105000 134000
2020-10-04 04:00 11.46 45900 186000 (2020) 33600 (2004) 60800 36500 37700 38800 39900 49400 68300 77100 105000 134000
2020-10-04 03:00 11.46 45900 186000 (2020) 33600 (2004) 60800 36500 37700 38800 39900 49400 68300 77100 105000 134000
2020-10-04 02:00 11.46 45900 186000 (2020) 33600 (2004) 60800 36500 37700 38800 39900 49400 68300 77100 105000 134000
2020-10-04 01:00 11.46 45900 186000 (2020) 33600 (2004) 60800 36500 37700 38800 39900 49400 68300 77100 105000 134000
2020-10-04 00:00 11.45 45900 186000 (2020) 33600 (2004) 60800 36500 37700 38800 39900 49400 68300 77100 105000 134000
2020-10-03 23:00 11.45 45900 181000 (2020) 33900 (2004) 61000 35400 36800 39100 40300 48700 67000 79000 104000 135000
2020-10-03 21:00 11.46 45900 181000 (2020) 33900 (2004) 61000 35400 36800 39100 40300 48700 67000 79000 104000 135000
2020-10-03 20:00 11.44 45800 181000 (2020) 33900 (2004) 61000 35400 36800 39100 40300 48700 67000 79000 104000 135000
2020-10-03 19:00 11.45 45900 181000 (2020) 33900 (2004) 61000 35400 36800 39100 40300 48700 67000 79000 104000 135000
2020-10-03 18:00 11.45 45900 181000 (2020) 33900 (2004) 61000 35400 36800 39100 40300 48700 67000 79000 104000 135000
2020-10-03 17:00 11.45 45900 181000 (2020) 33900 (2004) 61000 35400 36800 39100 40300 48700 67000 79000 104000 135000
2020-10-03 16:00 11.48 46000 181000 (2020) 33900 (2004) 61000 35400 36800 39100 40300 48700 67000 79000 104000 135000
2020-10-03 15:00 11.47 46000 181000 (2020) 33900 (2004) 61000 35400 36800 39100 40300 48700 67000 79000 104000 135000
2020-10-03 14:00 11.49 46100 181000 (2020) 33900 (2004) 61000 35400 36800 39100 40300 48700 67000 79000 104000 135000
2020-10-03 13:00 11.46 45900 181000 (2020) 33900 (2004) 61000 35400 36800 39100 40300 48700 67000 79000 104000 135000
2020-10-03 12:00 11.38 45500 181000 (2020) 33900 (2004) 61000 35400 36800 39100 40300 48700 67000 79000 104000 135000
2020-10-03 11:00 11.42 45700 181000 (2020) 33900 (2004) 61000 35400 36800 39100 40300 48700 67000 79000 104000 135000
2020-10-03 10:00 11.44 45800 181000 (2020) 33900 (2004) 61000 35400 36800 39100 40300 48700 67000 79000 104000 135000
2020-10-03 09:00 11.42 45700 181000 (2020) 33900 (2004) 61000 35400 36800 39100 40300 48700 67000 79000 104000 135000
2020-10-03 08:00 11.45 45900 181000 (2020) 33900 (2004) 61000 35400 36800 39100 40300 48700 67000 79000 104000 135000
2020-10-03 07:00 11.39 45600 181000 (2020) 33900 (2004) 61000 35400 36800 39100 40300 48700 67000 79000 104000 135000
2020-10-03 06:00 11.37 45500 181000 (2020) 33900 (2004) 61000 35400 36800 39100 40300 48700 67000 79000 104000 135000
2020-10-03 05:00 11.49 46100 181000 (2020) 33900 (2004) 61000 35400 36800 39100 40300 48700 67000 79000 104000 135000
2020-10-03 04:00 11.50 46100 181000 (2020) 33900 (2004) 61000 35400 36800 39100 40300 48700 67000 79000 104000 135000
2020-10-03 03:00 11.50 46100 181000 (2020) 33900 (2004) 61000 35400 36800 39100 40300 48700 67000 79000 104000 135000
2020-10-03 02:00 11.50 46100 181000 (2020) 33900 (2004) 61000 35400 36800 39100 40300 48700 67000 79000 104000 135000
2020-10-03 01:00 11.50 46100 181000 (2020) 33900 (2004) 61000 35400 36800 39100 40300 48700 67000 79000 104000 135000
2020-10-03 00:00 11.42 45700 181000 (2020) 33900 (2004) 61000 35400 36800 39100 40300 48700 67000 79000 104000 135000
2020-10-02 23:00 11.50 46100 177000 (2020) 33800 (1958) 60300 34200 36900 39300 39900 48800 66400 79300 103000 145000
2020-10-02 22:00 11.48 46000 177000 (2020) 33800 (1958) 60300 34200 36900 39300 39900 48800 66400 79300 103000 145000
2020-10-02 21:00 11.52 46200 177000 (2020) 33800 (1958) 60300 34200 36900 39300 39900 48800 66400 79300 103000 145000
2020-10-02 20:00 11.53 46300 177000 (2020) 33800 (1958) 60300 34200 36900 39300 39900 48800 66400 79300 103000 145000
2020-10-02 19:00 11.53 46300 177000 (2020) 33800 (1958) 60300 34200 36900 39300 39900 48800 66400 79300 103000 145000
2020-10-02 18:00 11.54 46300 177000 (2020) 33800 (1958) 60300 34200 36900 39300 39900 48800 66400 79300 103000 145000
2020-10-02 17:00 11.54 46300 177000 (2020) 33800 (1958) 60300 34200 36900 39300 39900 48800 66400 79300 103000 145000
2020-10-02 16:00 11.55 46400 177000 (2020) 33800 (1958) 60300 34200 36900 39300 39900 48800 66400 79300 103000 145000
2020-10-02 15:00 11.48 46000 177000 (2020) 33800 (1958) 60300 34200 36900 39300 39900 48800 66400 79300 103000 145000
2020-10-02 14:00 11.55 46400 177000 (2020) 33800 (1958) 60300 34200 36900 39300 39900 48800 66400 79300 103000 145000
2020-10-02 13:00 11.54 46300 177000 (2020) 33800 (1958) 60300 34200 36900 39300 39900 48800 66400 79300 103000 145000
2020-10-02 12:00 11.52 46200 177000 (2020) 33800 (1958) 60300 34200 36900 39300 39900 48800 66400 79300 103000 145000
2020-10-02 11:00 11.56 46400 177000 (2020) 33800 (1958) 60300 34200 36900 39300 39900 48800 66400 79300 103000 145000
2020-10-02 10:00 11.57 46500 177000 (2020) 33800 (1958) 60300 34200 36900 39300 39900 48800 66400 79300 103000 145000
2020-10-02 09:00 11.55 46400 177000 (2020) 33800 (1958) 60300 34200 36900 39300 39900 48800 66400 79300 103000 145000
2020-10-02 08:00 11.57 46500 177000 (2020) 33800 (1958) 60300 34200 36900 39300 39900 48800 66400 79300 103000 145000
2020-10-02 07:00 11.58 46500 177000 (2020) 33800 (1958) 60300 34200 36900 39300 39900 48800 66400 79300 103000 145000
2020-10-02 06:00 11.58 46500 177000 (2020) 33800 (1958) 60300 34200 36900 39300 39900 48800 66400 79300 103000 145000
2020-10-02 05:00 11.57 46500 177000 (2020) 33800 (1958) 60300 34200 36900 39300 39900 48800 66400 79300 103000 145000
2020-10-02 04:00 11.58 46500 177000 (2020) 33800 (1958) 60300 34200 36900 39300 39900 48800 66400 79300 103000 145000
2020-10-02 03:00 11.58 46500 177000 (2020) 33800 (1958) 60300 34200 36900 39300 39900 48800 66400 79300 103000 145000
2020-10-02 02:00 11.59 46600 177000 (2020) 33800 (1958) 60300 34200 36900 39300 39900 48800 66400 79300 103000 145000
2020-10-02 01:00 11.58 46500 177000 (2020) 33800 (1958) 60300 34200 36900 39300 39900 48800 66400 79300 103000 145000
2020-10-02 00:00 11.59 46600 177000 (2020) 33800 (1958) 60300 34200 36900 39300 39900 48800 66400 79300 103000 145000
2020-10-01 23:00 11.57 46500 201000 (1974) 33200 (1958) 61500 34100 36700 39100 40300 48600 67400 69700 110000 160000
2020-10-01 22:00 11.57 46500 201000 (1974) 33200 (1958) 61500 34100 36700 39100 40300 48600 67400 69700 110000 160000
2020-10-01 21:00 11.56 46400 201000 (1974) 33200 (1958) 61500 34100 36700 39100 40300 48600 67400 69700 110000 160000
2020-10-01 20:00 11.55 46400 201000 (1974) 33200 (1958) 61500 34100 36700 39100 40300 48600 67400 69700 110000 160000
2020-10-01 19:00 11.54 46300 201000 (1974) 33200 (1958) 61500 34100 36700 39100 40300 48600 67400 69700 110000 160000
2020-10-01 18:00 11.54 46300 201000 (1974) 33200 (1958) 61500 34100 36700 39100 40300 48600 67400 69700 110000 160000
2020-10-01 17:00 11.55 46400 201000 (1974) 33200 (1958) 61500 34100 36700 39100 40300 48600 67400 69700 110000 160000
2020-10-01 16:00 11.51 46200 201000 (1974) 33200 (1958) 61500 34100 36700 39100 40300 48600 67400 69700 110000 160000
2020-10-01 15:00 11.58 46500 201000 (1974) 33200 (1958) 61500 34100 36700 39100 40300 48600 67400 69700 110000 160000
2020-10-01 14:00 11.54 46300 201000 (1974) 33200 (1958) 61500 34100 36700 39100 40300 48600 67400 69700 110000 160000
2020-10-01 13:00 11.56 46400 201000 (1974) 33200 (1958) 61500 34100 36700 39100 40300 48600 67400 69700 110000 160000
2020-10-01 12:00 11.57 46500 201000 (1974) 33200 (1958) 61500 34100 36700 39100 40300 48600 67400 69700 110000 160000
2020-10-01 11:00 11.55 46400 201000 (1974) 33200 (1958) 61500 34100 36700 39100 40300 48600 67400 69700 110000 160000
2020-10-01 10:00 11.54 46300 201000 (1974) 33200 (1958) 61500 34100 36700 39100 40300 48600 67400 69700 110000 160000
2020-10-01 09:00 11.48 46000 201000 (1974) 33200 (1958) 61500 34100 36700 39100 40300 48600 67400 69700 110000 160000
2020-10-01 08:00 11.61 46700 201000 (1974) 33200 (1958) 61500 34100 36700 39100 40300 48600 67400 69700 110000 160000
2020-10-01 07:00 11.59 45300 201000 (1974) 33200 (1958) 61500 34100 36700 39100 40300 48600 67400 69700 110000 160000
2020-10-01 06:00 11.59 45300 201000 (1974) 33200 (1958) 61500 34100 36700 39100 40300 48600 67400 69700 110000 160000
2020-10-01 05:00 11.54 45100 201000 (1974) 33200 (1958) 61500 34100 36700 39100 40300 48600 67400 69700 110000 160000
2020-10-01 04:00 11.59 45300 201000 (1974) 33200 (1958) 61500 34100 36700 39100 40300 48600 67400 69700 110000 160000
2020-10-01 03:00 11.60 45400 201000 (1974) 33200 (1958) 61500 34100 36700 39100 40300 48600 67400 69700 110000 160000
2020-10-01 02:00 11.60 45400 201000 (1974) 33200 (1958) 61500 34100 36700 39100 40300 48600 67400 69700 110000 160000
2020-10-01 01:00 11.61 45400 201000 (1974) 33200 (1958) 61500 34100 36700 39100 40300 48600 67400 69700 110000 160000
2020-10-01 00:00 11.61 45400 201000 (1974) 33200 (1958) 61500 34100 36700 39100 40300 48600 67400 69700 110000 160000
2020-09-30 23:00 11.62 45500 230000 (1973) 33500 (2003) 62100 34300 36700 39400 40600 48200 67400 69800 113000 143000
2020-09-30 22:00 11.62 45500 230000 (1973) 33500 (2003) 62100 34300 36700 39400 40600 48200 67400 69800 113000 143000
2020-09-30 21:00 11.62 45500 230000 (1973) 33500 (2003) 62100 34300 36700 39400 40600 48200 67400 69800 113000 143000
2020-09-30 20:00 11.61 45400 230000 (1973) 33500 (2003) 62100 34300 36700 39400 40600 48200 67400 69800 113000 143000
2020-09-30 19:00 11.61 45400 230000 (1973) 33500 (2003) 62100 34300 36700 39400 40600 48200 67400 69800 113000 143000
2020-09-30 18:00 11.61 45400 230000 (1973) 33500 (2003) 62100 34300 36700 39400 40600 48200 67400 69800 113000 143000
2020-09-30 17:00 11.62 45500 230000 (1973) 33500 (2003) 62100 34300 36700 39400 40600 48200 67400 69800 113000 143000
2020-09-30 16:00 11.53 45000 230000 (1973) 33500 (2003) 62100 34300 36700 39400 40600 48200 67400 69800 113000 143000
2020-09-30 15:00 11.61 45400 230000 (1973) 33500 (2003) 62100 34300 36700 39400 40600 48200 67400 69800 113000 143000
2020-09-30 14:00 11.60 45400 230000 (1973) 33500 (2003) 62100 34300 36700 39400 40600 48200 67400 69800 113000 143000
2020-09-30 13:00 11.58 45300 230000 (1973) 33500 (2003) 62100 34300 36700 39400 40600 48200 67400 69800 113000 143000
2020-09-30 12:00 11.57 45200 230000 (1973) 33500 (2003) 62100 34300 36700 39400 40600 48200 67400 69800 113000 143000
2020-09-30 11:00 11.61 45400 230000 (1973) 33500 (2003) 62100 34300 36700 39400 40600 48200 67400 69800 113000 143000
2020-09-30 10:00 11.53 45000 230000 (1973) 33500 (2003) 62100 34300 36700 39400 40600 48200 67400 69800 113000 143000
2020-09-30 09:00 11.65 45600 230000 (1973) 33500 (2003) 62100 34300 36700 39400 40600 48200 67400 69800 113000 143000
2020-09-30 08:00 11.67 45700 230000 (1973) 33500 (2003) 62100 34300 36700 39400 40600 48200 67400 69800 113000 143000
2020-09-30 07:00 11.67 45700 230000 (1973) 33500 (2003) 62100 34300 36700 39400 40600 48200 67400 69800 113000 143000
2020-09-30 06:00 11.67 45700 230000 (1973) 33500 (2003) 62100 34300 36700 39400 40600 48200 67400 69800 113000 143000
2020-09-30 05:00 11.68 45800 230000 (1973) 33500 (2003) 62100 34300 36700 39400 40600 48200 67400 69800 113000 143000
2020-09-30 04:00 11.69 45800 230000 (1973) 33500 (2003) 62100 34300 36700 39400 40600 48200 67400 69800 113000 143000
2020-09-30 03:00 11.69 45800 230000 (1973) 33500 (2003) 62100 34300 36700 39400 40600 48200 67400 69800 113000 143000
2020-09-30 02:00 11.71 45900 230000 (1973) 33500 (2003) 62100 34300 36700 39400 40600 48200 67400 69800 113000 143000
2020-09-30 01:00 11.71 45900 230000 (1973) 33500 (2003) 62100 34300 36700 39400 40600 48200 67400 69800 113000 143000
2020-09-30 00:00 11.72 46000 230000 (1973) 33500 (2003) 62100 34300 36700 39400 40600 48200 67400 69800 113000 143000
2020-09-29 23:00 11.60 45400 239000 (1973) 33000 (2002) 62100 34500 36500 40200 41500 49600 69600 74300 108000 134000
2020-09-29 22:00 11.74 46100 239000 (1973) 33000 (2002) 62100 34500 36500 40200 41500 49600 69600 74300 108000 134000
2020-09-29 21:00 11.75 46100 239000 (1973) 33000 (2002) 62100 34500 36500 40200 41500 49600 69600 74300 108000 134000
2020-09-29 20:00 11.77 46200 239000 (1973) 33000 (2002) 62100 34500 36500 40200 41500 49600 69600 74300 108000 134000
2020-09-29 19:00 11.78 46300 239000 (1973) 33000 (2002) 62100 34500 36500 40200 41500 49600 69600 74300 108000 134000
2020-09-29 18:00 11.79 46300 239000 (1973) 33000 (2002) 62100 34500 36500 40200 41500 49600 69600 74300 108000 134000
2020-09-29 17:00 11.78 46300 239000 (1973) 33000 (2002) 62100 34500 36500 40200 41500 49600 69600 74300 108000 134000
2020-09-29 16:00 11.66 45700 239000 (1973) 33000 (2002) 62100 34500 36500 40200 41500 49600 69600 74300 108000 134000
2020-09-29 15:00 11.77 46200 239000 (1973) 33000 (2002) 62100 34500 36500 40200 41500 49600 69600 74300 108000 134000
2020-09-29 14:00 11.77 46200 239000 (1973) 33000 (2002) 62100 34500 36500 40200 41500 49600 69600 74300 108000 134000
2020-09-29 13:00 11.80 46400 239000 (1973) 33000 (2002) 62100 34500 36500 40200 41500 49600 69600 74300 108000 134000
2020-09-29 12:00 11.76 46200 239000 (1973) 33000 (2002) 62100 34500 36500 40200 41500 49600 69600 74300 108000 134000
2020-09-29 11:00 11.82 46500 239000 (1973) 33000 (2002) 62100 34500 36500 40200 41500 49600 69600 74300 108000 134000
2020-09-29 10:00 11.87 46700 239000 (1973) 33000 (2002) 62100 34500 36500 40200 41500 49600 69600 74300 108000 134000
2020-09-29 09:00 11.88 46800 239000 (1973) 33000 (2002) 62100 34500 36500 40200 41500 49600 69600 74300 108000 134000
2020-09-29 08:00 11.90 46900 239000 (1973) 33000 (2002) 62100 34500 36500 40200 41500 49600 69600 74300 108000 134000
2020-09-29 07:00 11.92 47000 239000 (1973) 33000 (2002) 62100 34500 36500 40200 41500 49600 69600 74300 108000 134000
2020-09-29 06:00 11.92 47000 239000 (1973) 33000 (2002) 62100 34500 36500 40200 41500 49600 69600 74300 108000 134000
2020-09-29 05:00 11.92 47000 239000 (1973) 33000 (2002) 62100 34500 36500 40200 41500 49600 69600 74300 108000 134000
2020-09-29 04:00 11.92 47000 239000 (1973) 33000 (2002) 62100 34500 36500 40200 41500 49600 69600 74300 108000 134000
2020-09-29 03:00 11.92 47000 239000 (1973) 33000 (2002) 62100 34500 36500 40200 41500 49600 69600 74300 108000 134000
2020-09-29 02:00 11.93 47000 239000 (1973) 33000 (2002) 62100 34500 36500 40200 41500 49600 69600 74300 108000 134000
2020-09-29 01:00 11.93 47000 239000 (1973) 33000 (2002) 62100 34500 36500 40200 41500 49600 69600 74300 108000 134000
2020-09-29 00:00 11.92 47000 239000 (1973) 33000 (2002) 62100 34500 36500 40200 41500 49600 69600 74300 108000 134000

A total of 729 rows are displayed for years 1958 through 2019.